ITY793 RJTT-LIRF
Flight info
| Callsign | ITY793 |
|---|---|
| Flight time | N/A |
| Altitude | 36000 |
| Route | BEKLA Y18 PIGAP Y182 BIDIK Y16 SAPRA G585 SEL Y697 AGAVO/K0904S1100 A591 IKEKA W4 HCH W200 DOVIV W55 PAMRU W34 VYK B215 LEBOM W104 VEXEB W47 IDSOT W48 DKO W66 IPDAT/K0898S1160 W66 NUKTI B215 FKG A368 TCH/K0895F400 A368 SARIN/K0895F400 N161 GASBI/N0491F400 N161 LEYLA N644 ADEKI DCT BADIR DCT LAGAS DCT NOLGA UG261 TBN UW71 CRM UM688 EKSUK UL852 NEGEM Q8 DOLAP DCT GORAV DCT VELUG/N0475F390 DCT ESODU DCT ASPIR DCT MOPUV |
| Aircraft | A359/H-SABDE2E3FGHIJ1J4J5M1P2RWXYZ/LB1D1 |
Departure
| Time | 2026-05-05 08:03 |
|---|---|
| Airport | Tokyo Haneda International Airport (RJTT) |
Arrival
| Time | N/A |
|---|---|
| Airport | Rome–Fiumicino Leonardo da Vinci International Airport (LIRF) |
| Time | Latitude | Longitude | Altitude | Speed | Heading |
|---|---|---|---|---|---|
| 2026-05-05 06:56 | 35.54834 | 139.76577 | 29 ft | 0 kts | 149° |
| 2026-05-05 07:35 | 35.54844 | 139.76570 | 29 ft | 4 kts | 150° |
| 2026-05-05 07:35 | 35.54864 | 139.76555 | 27 ft | 4 kts | 133° |
| 2026-05-05 07:36 | 35.54872 | 139.76530 | 26 ft | 4 kts | 72° |
| 2026-05-05 07:36 | 35.54861 | 139.76501 | 28 ft | 3 kts | 62° |
| 2026-05-05 07:36 | 35.54858 | 139.76494 | 27 ft | 0 kts | 62° |
| 2026-05-05 07:55 | 35.54873 | 139.76529 | 28 ft | 10 kts | 62° |
| 2026-05-05 07:55 | 35.54909 | 139.76604 | 29 ft | 11 kts | 59° |
| 2026-05-05 07:56 | 35.54949 | 139.76688 | 29 ft | 12 kts | 59° |
| 2026-05-05 07:56 | 35.54994 | 139.76782 | 29 ft | 13 kts | 59° |
| 2026-05-05 07:56 | 35.55049 | 139.76897 | 29 ft | 17 kts | 60° |
| 2026-05-05 07:56 | 35.55121 | 139.77050 | 29 ft | 21 kts | 54° |
| 2026-05-05 07:57 | 35.55202 | 139.77186 | 29 ft | 13 kts | 26° |
| 2026-05-05 07:57 | 35.55278 | 139.77160 | 29 ft | 14 kts | 335° |
| 2026-05-05 07:57 | 35.55354 | 139.77104 | 29 ft | 13 kts | 330° |
| 2026-05-05 07:57 | 35.55437 | 139.77047 | 29 ft | 14 kts | 331° |
| 2026-05-05 07:58 | 35.55526 | 139.76986 | 29 ft | 15 kts | 331° |
| 2026-05-05 07:58 | 35.55623 | 139.76924 | 29 ft | 16 kts | 333° |
| 2026-05-05 07:58 | 35.55728 | 139.76915 | 31 ft | 15 kts | 20° |
| 2026-05-05 07:58 | 35.55794 | 139.76999 | 31 ft | 14 kts | 60° |
| 2026-05-05 07:59 | 35.55853 | 139.77129 | 29 ft | 18 kts | 60° |
| 2026-05-05 07:59 | 35.55916 | 139.77266 | 29 ft | 19 kts | 60° |
| 2026-05-05 07:59 | 35.55982 | 139.77409 | 29 ft | 20 kts | 60° |
| 2026-05-05 07:59 | 35.56051 | 139.77559 | 29 ft | 21 kts | 60° |
| 2026-05-05 08:00 | 35.56125 | 139.77714 | 29 ft | 21 kts | 59° |
| 2026-05-05 08:00 | 35.56203 | 139.77875 | 29 ft | 22 kts | 59° |
| 2026-05-05 08:00 | 35.56283 | 139.78042 | 29 ft | 23 kts | 59° |
| 2026-05-05 08:00 | 35.56367 | 139.78217 | 29 ft | 24 kts | 59° |
| 2026-05-05 08:01 | 35.56455 | 139.78399 | 29 ft | 25 kts | 59° |
| 2026-05-05 08:01 | 35.56526 | 139.78548 | 29 ft | 18 kts | 59° |
| 2026-05-05 08:01 | 35.56562 | 139.78640 | 30 ft | 9 kts | 90° |
| 2026-05-05 08:01 | 35.56525 | 139.78702 | 30 ft | 9 kts | 144° |
| 2026-05-05 08:02 | 35.56412 | 139.78777 | 30 ft | 41 kts | 151° |
| 2026-05-05 08:02 | 35.55989 | 139.79086 | 30 ft | 100 kts | 151° |
| 2026-05-05 08:02 | 35.55232 | 139.79618 | 30 ft | 150 kts | 151° |
| 2026-05-05 08:02 | 35.54282 | 139.80230 | 562 ft | 149 kts | 155° |
| 2026-05-05 08:03 | 35.53371 | 139.80902 | 1063 ft | 158 kts | 146° |
| 2026-05-05 08:03 | 35.52624 | 139.81887 | 1717 ft | 157 kts | 133° |
| 2026-05-05 08:03 | 35.52183 | 139.82608 | 2112 ft | 155 kts | 131° |
| 2026-05-05 08:03 | 35.51523 | 139.83648 | 2477 ft | 158 kts | 136° |
| 2026-05-05 08:04 | 35.50759 | 139.84631 | 2796 ft | 160 kts | 139° |
| 2026-05-05 08:04 | 35.49964 | 139.85602 | 3139 ft | 165 kts | 138° |
| 2026-05-05 08:04 | 35.49113 | 139.86634 | 3352 ft | 179 kts | 139° |
| 2026-05-05 08:04 | 35.48191 | 139.87751 | 3557 ft | 194 kts | 139° |
| 2026-05-05 08:05 | 35.47196 | 139.88959 | 3760 ft | 210 kts | 138° |
| 2026-05-05 08:05 | 35.46111 | 139.90283 | 3948 ft | 229 kts | 136° |
| 2026-05-05 08:05 | 35.45161 | 139.91944 | 4131 ft | 251 kts | 112° |
| 2026-05-05 08:05 | 35.45099 | 139.94125 | 4484 ft | 267 kts | 76° |
| 2026-05-05 08:06 | 35.46076 | 139.96095 | 4961 ft | 276 kts | 46° |
| 2026-05-05 08:06 | 35.47467 | 139.97712 | 5665 ft | 275 kts | 39° |
| 2026-05-05 08:06 | 35.49075 | 139.98972 | 6247 ft | 275 kts | 19° |
| 2026-05-05 08:06 | 35.50931 | 139.99354 | 6922 ft | 270 kts | 354° |
| 2026-05-05 08:07 | 35.52764 | 139.98916 | 7543 ft | 269 kts | 343° |
| 2026-05-05 08:07 | 35.54573 | 139.98270 | 8127 ft | 272 kts | 342° |
| 2026-05-05 08:07 | 35.56392 | 139.97614 | 8834 ft | 271 kts | 341° |
| 2026-05-05 08:07 | 35.58207 | 139.96971 | 9509 ft | 272 kts | 342° |
| 2026-05-05 08:08 | 35.60041 | 139.96347 | 10076 ft | 278 kts | 343° |
| 2026-05-05 08:08 | 35.62022 | 139.96079 | 10353 ft | 296 kts | 358° |
| 2026-05-05 08:08 | 35.64137 | 139.96173 | 10588 ft | 312 kts | 1° |
| 2026-05-05 08:08 | 35.66355 | 139.96334 | 10835 ft | 327 kts | 1° |
| 2026-05-05 08:09 | 35.68671 | 139.96455 | 11066 ft | 340 kts | 357° |
| 2026-05-05 08:09 | 35.71039 | 139.96024 | 11304 ft | 349 kts | 340° |
| 2026-05-05 08:09 | 35.73201 | 139.94666 | 11715 ft | 351 kts | 321° |
| 2026-05-05 08:09 | 35.74895 | 139.92522 | 12239 ft | 352 kts | 304° |
| 2026-05-05 08:10 | 35.75945 | 139.89799 | 12685 ft | 356 kts | 285° |
| 2026-05-05 08:10 | 35.76208 | 139.86767 | 13206 ft | 360 kts | 267° |
| 2026-05-05 08:10 | 35.75788 | 139.83716 | 13711 ft | 363 kts | 261° |
| 2026-05-05 08:10 | 35.75629 | 139.80618 | 14173 ft | 364 kts | 275° |
| 2026-05-05 08:11 | 35.75907 | 139.77513 | 14665 ft | 365 kts | 278° |
| 2026-05-05 08:11 | 35.76273 | 139.74410 | 15142 ft | 368 kts | 279° |
| 2026-05-05 08:11 | 35.76833 | 139.71335 | 15657 ft | 369 kts | 286° |
| 2026-05-05 08:11 | 35.77574 | 139.68301 | 16136 ft | 372 kts | 287° |
| 2026-05-05 08:12 | 35.78345 | 139.65251 | 16666 ft | 374 kts | 287° |
| 2026-05-05 08:12 | 35.79115 | 139.62200 | 17076 ft | 375 kts | 287° |
| 2026-05-05 08:12 | 35.79888 | 139.59121 | 17583 ft | 377 kts | 287° |
| 2026-05-05 08:12 | 35.80662 | 139.56024 | 18125 ft | 379 kts | 287° |
| 2026-05-05 08:13 | 35.81438 | 139.52910 | 18620 ft | 381 kts | 287° |
| 2026-05-05 08:13 | 35.82215 | 139.49781 | 19107 ft | 383 kts | 287° |
| 2026-05-05 08:13 | 35.82786 | 139.46581 | 19592 ft | 383 kts | 276° |
| 2026-05-05 08:13 | 35.82935 | 139.43344 | 20119 ft | 384 kts | 272° |
| 2026-05-05 08:14 | 35.82985 | 139.40054 | 20658 ft | 384 kts | 271° |
| 2026-05-05 08:14 | 35.83025 | 139.36762 | 21178 ft | 385 kts | 271° |
| 2026-05-05 08:14 | 35.83068 | 139.33453 | 21696 ft | 386 kts | 271° |
| 2026-05-05 08:14 | 35.83114 | 139.30144 | 22217 ft | 387 kts | 271° |
| 2026-05-05 08:15 | 35.83160 | 139.26822 | 22731 ft | 388 kts | 270° |
| 2026-05-05 08:15 | 35.83207 | 139.23496 | 23268 ft | 389 kts | 270° |
| 2026-05-05 08:15 | 35.83253 | 139.20138 | 23506 ft | 397 kts | 271° |
| 2026-05-05 08:15 | 35.83300 | 139.16711 | 23797 ft | 401 kts | 271° |
| 2026-05-05 08:16 | 35.83285 | 139.13270 | 24249 ft | 401 kts | 268° |
| 2026-05-05 08:16 | 35.83137 | 139.09854 | 24783 ft | 398 kts | 266° |
| 2026-05-05 08:16 | 35.82931 | 139.06472 | 25409 ft | 393 kts | 265° |
| 2026-05-05 08:16 | 35.82715 | 139.03136 | 25990 ft | 390 kts | 265° |
| 2026-05-05 08:17 | 35.82510 | 138.99819 | 26527 ft | 387 kts | 265° |
| 2026-05-05 08:17 | 35.82319 | 138.96510 | 26961 ft | 388 kts | 265° |
| 2026-05-05 08:17 | 35.82138 | 138.93190 | 27401 ft | 388 kts | 265° |
| 2026-05-05 08:17 | 35.81962 | 138.89880 | 27852 ft | 387 kts | 265° |
| 2026-05-05 08:18 | 35.81795 | 138.86578 | 28317 ft | 386 kts | 264° |
| 2026-05-05 08:18 | 35.81631 | 138.83284 | 28815 ft | 383 kts | 265° |
| 2026-05-05 08:18 | 35.81472 | 138.80012 | 29305 ft | 382 kts | 264° |
| 2026-05-05 08:18 | 35.81311 | 138.76738 | 29630 ft | 384 kts | 264° |
| 2026-05-05 08:19 | 35.81147 | 138.73457 | 29998 ft | 383 kts | 264° |
| 2026-05-05 08:19 | 35.80981 | 138.70165 | 30103 ft | 389 kts | 264° |
| 2026-05-05 08:19 | 35.80610 | 138.63413 | 30371 ft | 396 kts | 264° |
| 2026-05-05 08:20 | 35.80434 | 138.60055 | 30909 ft | 391 kts | 264° |
| 2026-05-05 08:20 | 35.80263 | 138.56721 | 31258 ft | 390 kts | 264° |
| 2026-05-05 08:20 | 35.80090 | 138.53391 | 31501 ft | 389 kts | 264° |
| 2026-05-05 08:20 | 35.79915 | 138.50100 | 31715 ft | 390 kts | 264° |
| 2026-05-05 08:21 | 35.79731 | 138.46718 | 31988 ft | 391 kts | 264° |
| 2026-05-05 08:21 | 35.79555 | 138.43410 | 32422 ft | 387 kts | 263° |
| 2026-05-05 08:21 | 35.79380 | 138.40113 | 32918 ft | 381 kts | 263° |
| 2026-05-05 08:21 | 35.79222 | 138.36916 | 33371 ft | 377 kts | 264° |
| 2026-05-05 08:22 | 35.79251 | 138.33653 | 33760 ft | 376 kts | 269° |
| 2026-05-05 08:22 | 35.79549 | 138.30496 | 34137 ft | 377 kts | 274° |
| 2026-05-05 08:22 | 35.80151 | 138.27335 | 34354 ft | 381 kts | 278° |
| 2026-05-05 08:22 | 35.80923 | 138.24193 | 34373 ft | 386 kts | 280° |
| 2026-05-05 08:23 | 35.81762 | 138.21010 | 34214 ft | 393 kts | 280° |
| 2026-05-05 08:23 | 35.82637 | 138.17824 | 34327 ft | 392 kts | 280° |
| 2026-05-05 08:23 | 35.83523 | 138.14656 | 34600 ft | 389 kts | 280° |
| 2026-05-05 08:23 | 35.84397 | 138.11518 | 34839 ft | 387 kts | 281° |
| 2026-05-05 08:24 | 35.86125 | 138.05196 | 35007 ft | 390 kts | 281° |
| 2026-05-05 08:24 | 35.86984 | 138.02025 | 35161 ft | 390 kts | 281° |
| 2026-05-05 08:24 | 35.87843 | 137.98857 | 35344 ft | 390 kts | 281° |
| 2026-05-05 08:25 | 35.89566 | 137.92475 | 35437 ft | 393 kts | 281° |
| 2026-05-05 08:25 | 35.91277 | 137.86096 | 35421 ft | 393 kts | 281° |
| 2026-05-05 08:26 | 35.92136 | 137.82885 | 35524 ft | 394 kts | 281° |
| 2026-05-05 08:26 | 35.92997 | 137.79682 | 35715 ft | 393 kts | 281° |
| 2026-05-05 08:26 | 35.93853 | 137.76493 | 35906 ft | 390 kts | 281° |
| 2026-05-05 08:26 | 35.94708 | 137.73317 | 35944 ft | 391 kts | 281° |
| 2026-05-05 08:27 | 35.96426 | 137.66864 | 35828 ft | 400 kts | 281° |
| 2026-05-05 08:27 | 35.97297 | 137.63600 | 35983 ft | 400 kts | 281° |
| 2026-05-05 08:27 | 35.98172 | 137.60347 | 36136 ft | 399 kts | 281° |
| 2026-05-05 08:28 | 35.99915 | 137.53801 | 36189 ft | 403 kts | 281° |
| 2026-05-05 08:28 | 36.01115 | 137.47148 | 36187 ft | 393 kts | 270° |
| 2026-05-05 08:29 | 36.01322 | 137.40428 | 36193 ft | 393 kts | 267° |
| 2026-05-05 08:30 | 36.01301 | 137.30239 | 36191 ft | 395 kts | 266° |
| 2026-05-05 08:30 | 36.01270 | 137.23471 | 36188 ft | 394 kts | 266° |
| 2026-05-05 08:31 | 36.01251 | 137.16705 | 36198 ft | 394 kts | 266° |
| 2026-05-05 08:31 | 36.01234 | 137.09946 | 36185 ft | 394 kts | 266° |
| 2026-05-05 08:32 | 36.01213 | 137.03183 | 36222 ft | 394 kts | 266° |
| 2026-05-05 08:32 | 36.01188 | 136.96380 | 36180 ft | 398 kts | 266° |
| 2026-05-05 08:33 | 36.01158 | 136.89522 | 36189 ft | 399 kts | 266° |
| 2026-05-05 08:33 | 36.01127 | 136.82689 | 36179 ft | 398 kts | 266° |
| 2026-05-05 08:34 | 36.01093 | 136.75869 | 36172 ft | 397 kts | 266° |
| 2026-05-05 08:34 | 36.01054 | 136.69109 | 36177 ft | 395 kts | 266° |
| 2026-05-05 08:35 | 36.01007 | 136.62326 | 36181 ft | 394 kts | 265° |
| 2026-05-05 08:35 | 36.00957 | 136.55547 | 36183 ft | 397 kts | 266° |
| 2026-05-05 08:36 | 36.00902 | 136.48682 | 36183 ft | 400 kts | 266° |
| 2026-05-05 08:36 | 36.00848 | 136.41842 | 36167 ft | 398 kts | 266° |
| 2026-05-05 08:37 | 36.00788 | 136.35015 | 36164 ft | 398 kts | 266° |
| 2026-05-05 08:37 | 36.00723 | 136.28174 | 36163 ft | 397 kts | 266° |
| 2026-05-05 08:38 | 36.00654 | 136.21352 | 36164 ft | 398 kts | 266° |
| 2026-05-05 08:38 | 36.00582 | 136.14514 | 36155 ft | 398 kts | 265° |
| 2026-05-05 08:39 | 36.00509 | 136.07690 | 36170 ft | 398 kts | 265° |
| 2026-05-05 08:39 | 36.00429 | 136.00855 | 36167 ft | 398 kts | 265° |
| 2026-05-05 08:40 | 36.00344 | 135.94019 | 36162 ft | 398 kts | 265° |
| 2026-05-05 08:40 | 36.00256 | 135.87233 | 36163 ft | 398 kts | 265° |
| 2026-05-05 08:41 | 36.00164 | 135.80398 | 36161 ft | 398 kts | 265° |
| 2026-05-05 08:41 | 36.00069 | 135.73553 | 36166 ft | 400 kts | 265° |
| 2026-05-05 08:42 | 35.99969 | 135.66687 | 36164 ft | 400 kts | 265° |
| 2026-05-05 08:42 | 35.99866 | 135.59826 | 36154 ft | 400 kts | 265° |
| 2026-05-05 08:43 | 35.99758 | 135.52962 | 36161 ft | 400 kts | 265° |
| 2026-05-05 08:43 | 35.99647 | 135.46104 | 36157 ft | 400 kts | 265° |
| 2026-05-05 08:44 | 35.99531 | 135.39243 | 36149 ft | 400 kts | 265° |
| 2026-05-05 08:44 | 35.99412 | 135.32372 | 36156 ft | 402 kts | 265° |
| 2026-05-05 08:45 | 35.99288 | 135.25472 | 36161 ft | 402 kts | 265° |
| 2026-05-05 08:45 | 35.99160 | 135.18567 | 36151 ft | 402 kts | 265° |
| 2026-05-05 08:46 | 35.99028 | 135.11667 | 36160 ft | 402 kts | 265° |
| 2026-05-05 08:46 | 35.98893 | 135.04766 | 36149 ft | 402 kts | 265° |
| 2026-05-05 08:47 | 35.98754 | 134.97871 | 36167 ft | 401 kts | 265° |
| 2026-05-05 08:47 | 35.98609 | 134.90971 | 36154 ft | 404 kts | 265° |
| 2026-05-05 08:48 | 35.98460 | 134.84027 | 36150 ft | 405 kts | 265° |
| 2026-05-05 08:48 | 35.98308 | 134.77078 | 36149 ft | 405 kts | 265° |
| 2026-05-05 08:49 | 35.98152 | 134.70129 | 36152 ft | 405 kts | 265° |
| 2026-05-05 08:49 | 35.97990 | 134.63180 | 36156 ft | 405 kts | 265° |
| 2026-05-05 08:50 | 35.97853 | 134.57408 | 36152 ft | 405 kts | 265° |
| 2026-05-05 08:50 | 35.97683 | 134.50443 | 36147 ft | 407 kts | 265° |
| 2026-05-05 08:51 | 35.97509 | 134.43466 | 36148 ft | 407 kts | 265° |
| 2026-05-05 08:51 | 35.97332 | 134.36481 | 36146 ft | 407 kts | 265° |
| 2026-05-05 08:52 | 35.97150 | 134.29502 | 36149 ft | 407 kts | 264° |
| 2026-05-05 08:52 | 35.96965 | 134.22524 | 36144 ft | 407 kts | 264° |
| 2026-05-05 08:53 | 35.96775 | 134.15534 | 36172 ft | 407 kts | 264° |
| 2026-05-05 08:53 | 35.96579 | 134.08523 | 36152 ft | 411 kts | 264° |
| 2026-05-05 08:54 | 35.96378 | 134.01462 | 36152 ft | 412 kts | 264° |
| 2026-05-05 08:54 | 35.96175 | 133.94401 | 36151 ft | 412 kts | 264° |
| 2026-05-05 08:55 | 35.95971 | 133.87343 | 36149 ft | 412 kts | 264° |
| 2026-05-05 08:55 | 35.95755 | 133.80281 | 36148 ft | 412 kts | 264° |
| 2026-05-05 08:56 | 35.95534 | 133.73222 | 36161 ft | 412 kts | 264° |
| 2026-05-05 08:56 | 35.95310 | 133.66130 | 36148 ft | 415 kts | 264° |
| 2026-05-05 08:57 | 35.95081 | 133.59005 | 36151 ft | 416 kts | 264° |
| 2026-05-05 08:57 | 35.94850 | 133.51880 | 36143 ft | 415 kts | 264° |
| 2026-05-05 08:58 | 35.94614 | 133.44767 | 36149 ft | 414 kts | 264° |
| 2026-05-05 08:58 | 35.94375 | 133.37707 | 36152 ft | 416 kts | 264° |
| 2026-05-05 08:59 | 35.94128 | 133.30556 | 36146 ft | 418 kts | 264° |
| 2026-05-05 08:59 | 35.93877 | 133.23397 | 36152 ft | 418 kts | 264° |
| 2026-05-05 09:00 | 35.93621 | 133.16215 | 36148 ft | 421 kts | 264° |
| 2026-05-05 09:00 | 35.93362 | 133.09011 | 36144 ft | 419 kts | 264° |
| 2026-05-05 09:01 | 35.93100 | 133.01856 | 36166 ft | 417 kts | 264° |
| 2026-05-05 09:01 | 35.92830 | 132.94689 | 36143 ft | 420 kts | 264° |
| 2026-05-05 09:02 | 35.92555 | 132.87483 | 36144 ft | 421 kts | 264° |
| 2026-05-05 09:02 | 35.92277 | 132.80269 | 36138 ft | 421 kts | 264° |
| 2026-05-05 09:03 | 35.91996 | 132.73067 | 36131 ft | 420 kts | 264° |
| 2026-05-05 09:03 | 35.91713 | 132.65919 | 36141 ft | 416 kts | 264° |
| 2026-05-05 09:04 | 35.91424 | 132.58797 | 36149 ft | 416 kts | 264° |
| 2026-05-05 09:04 | 35.91128 | 132.51628 | 36144 ft | 420 kts | 264° |
| 2026-05-05 09:05 | 35.90829 | 132.44436 | 36132 ft | 420 kts | 264° |
| 2026-05-05 09:05 | 35.90525 | 132.37237 | 36140 ft | 421 kts | 264° |
| 2026-05-05 09:06 | 35.90219 | 132.30062 | 36131 ft | 421 kts | 264° |
| 2026-05-05 09:06 | 35.89907 | 132.22857 | 36130 ft | 421 kts | 264° |
| 2026-05-05 09:07 | 35.89589 | 132.15644 | 36135 ft | 422 kts | 264° |
| 2026-05-05 09:07 | 35.89265 | 132.08393 | 36130 ft | 424 kts | 264° |
| 2026-05-05 09:08 | 35.88937 | 132.01133 | 36119 ft | 424 kts | 264° |
| 2026-05-05 09:08 | 35.88605 | 131.93866 | 36124 ft | 424 kts | 264° |
| 2026-05-05 09:09 | 35.88269 | 131.86615 | 36130 ft | 423 kts | 263° |
| 2026-05-05 09:09 | 35.87928 | 131.79369 | 36126 ft | 423 kts | 263° |
| 2026-05-05 09:10 | 35.87584 | 131.72164 | 36125 ft | 426 kts | 264° |
| 2026-05-05 09:10 | 35.87230 | 131.64850 | 36119 ft | 428 kts | 264° |
| 2026-05-05 09:11 | 35.86874 | 131.57527 | 36088 ft | 428 kts | 263° |
| 2026-05-05 09:11 | 35.86513 | 131.50227 | 36116 ft | 426 kts | 263° |
| 2026-05-05 09:12 | 35.86148 | 131.42927 | 36115 ft | 427 kts | 263° |
| 2026-05-05 09:12 | 35.85778 | 131.35623 | 36116 ft | 427 kts | 263° |
| 2026-05-05 09:13 | 35.85402 | 131.28306 | 36111 ft | 429 kts | 263° |
| 2026-05-05 09:13 | 35.85020 | 131.20953 | 36106 ft | 430 kts | 263° |
| 2026-05-05 09:14 | 35.84635 | 131.13599 | 36116 ft | 429 kts | 263° |
| 2026-05-05 09:14 | 35.84245 | 131.06258 | 36124 ft | 430 kts | 263° |
| 2026-05-05 09:15 | 35.83849 | 130.98898 | 36118 ft | 431 kts | 263° |
| 2026-05-05 09:15 | 35.83449 | 130.91532 | 36105 ft | 431 kts | 263° |
| 2026-05-05 09:16 | 35.83043 | 130.84150 | 36113 ft | 433 kts | 263° |
| 2026-05-05 09:16 | 35.82631 | 130.76732 | 36091 ft | 434 kts | 263° |
| 2026-05-05 09:17 | 35.82825 | 130.69357 | 36106 ft | 436 kts | 273° |
| 2026-05-05 09:17 | 35.83673 | 130.61958 | 36097 ft | 436 kts | 274° |
| 2026-05-05 09:18 | 35.84627 | 130.54570 | 36104 ft | 437 kts | 275° |
| 2026-05-05 09:18 | 35.85583 | 130.47183 | 36118 ft | 437 kts | 275° |
| 2026-05-05 09:19 | 35.86523 | 130.39766 | 36102 ft | 439 kts | 275° |
| 2026-05-05 09:19 | 35.87454 | 130.32316 | 36099 ft | 440 kts | 275° |
| 2026-05-05 09:20 | 35.88381 | 130.24860 | 36113 ft | 440 kts | 275° |
| 2026-05-05 09:20 | 35.89305 | 130.17384 | 36091 ft | 442 kts | 275° |
| 2026-05-05 09:21 | 35.90229 | 130.09881 | 36084 ft | 442 kts | 275° |
| 2026-05-05 09:21 | 35.91145 | 130.02413 | 36098 ft | 440 kts | 275° |
| 2026-05-05 09:22 | 35.92054 | 129.94940 | 36086 ft | 442 kts | 275° |
| 2026-05-05 09:22 | 35.92962 | 129.87442 | 36081 ft | 442 kts | 275° |
| 2026-05-05 09:23 | 35.93868 | 129.79943 | 36098 ft | 442 kts | 275° |
| 2026-05-05 09:23 | 35.94771 | 129.72416 | 36074 ft | 445 kts | 275° |
| 2026-05-05 09:24 | 35.95625 | 129.64858 | 36062 ft | 445 kts | 272° |
| 2026-05-05 09:24 | 35.96413 | 129.57334 | 36077 ft | 445 kts | 272° |
| 2026-05-05 09:25 | 35.97564 | 129.49795 | 36062 ft | 453 kts | 282° |
| 2026-05-05 09:25 | 36.00283 | 129.42699 | 36063 ft | 464 kts | 296° |
| 2026-05-05 09:26 | 36.03940 | 129.36116 | 36053 ft | 465 kts | 298° |
| 2026-05-05 09:26 | 36.07734 | 129.29633 | 36042 ft | 466 kts | 299° |
| 2026-05-05 09:27 | 36.11528 | 129.23131 | 36040 ft | 466 kts | 299° |
| 2026-05-05 09:27 | 36.15296 | 129.16603 | 36038 ft | 466 kts | 299° |
| 2026-05-05 09:28 | 36.19047 | 129.10063 | 36042 ft | 466 kts | 299° |
| 2026-05-05 09:28 | 36.22800 | 129.03504 | 36035 ft | 467 kts | 299° |
| 2026-05-05 09:29 | 36.26555 | 128.96936 | 36034 ft | 467 kts | 299° |
| 2026-05-05 09:29 | 36.30305 | 128.90362 | 36026 ft | 467 kts | 299° |
| 2026-05-05 09:30 | 36.34053 | 128.83782 | 36027 ft | 467 kts | 299° |
| 2026-05-05 09:30 | 36.37797 | 128.77203 | 36028 ft | 467 kts | 299° |
| 2026-05-05 09:31 | 36.41539 | 128.70597 | 36024 ft | 468 kts | 299° |
| 2026-05-05 09:31 | 36.45250 | 128.64034 | 36023 ft | 468 kts | 299° |
| 2026-05-05 09:32 | 36.49018 | 128.57363 | 36016 ft | 468 kts | 299° |
| 2026-05-05 09:32 | 36.52735 | 128.50774 | 36018 ft | 469 kts | 299° |
| 2026-05-05 09:33 | 36.56472 | 128.44132 | 36017 ft | 469 kts | 300° |
| 2026-05-05 09:33 | 36.60211 | 128.37475 | 36017 ft | 469 kts | 300° |
| 2026-05-05 09:34 | 36.63949 | 128.30816 | 36018 ft | 469 kts | 300° |
| 2026-05-05 09:34 | 36.67720 | 128.24184 | 36018 ft | 470 kts | 300° |
| 2026-05-05 09:35 | 36.71507 | 128.17553 | 36028 ft | 470 kts | 300° |
| 2026-05-05 09:35 | 36.77189 | 128.07578 | 36022 ft | 471 kts | 300° |
| 2026-05-05 09:36 | 36.80963 | 128.00908 | 36019 ft | 470 kts | 300° |
| 2026-05-05 09:36 | 36.84731 | 127.94232 | 36028 ft | 471 kts | 301° |
| 2026-05-05 09:37 | 36.88505 | 127.87548 | 36024 ft | 471 kts | 300° |
| 2026-05-05 09:37 | 36.92263 | 127.80858 | 36020 ft | 471 kts | 300° |
| 2026-05-05 09:38 | 36.96037 | 127.74148 | 36018 ft | 471 kts | 300° |
| 2026-05-05 09:38 | 36.99805 | 127.67435 | 36018 ft | 471 kts | 301° |
| 2026-05-05 09:39 | 37.03572 | 127.60721 | 36017 ft | 472 kts | 301° |
| 2026-05-05 09:39 | 37.06697 | 127.55128 | 36018 ft | 472 kts | 301° |
| 2026-05-05 09:40 | 37.10448 | 127.48392 | 36017 ft | 472 kts | 301° |
| 2026-05-05 09:40 | 37.14816 | 127.40548 | 36030 ft | 472 kts | 301° |
| 2026-05-05 09:41 | 37.17962 | 127.34882 | 36038 ft | 472 kts | 301° |
| 2026-05-05 09:41 | 37.21709 | 127.28113 | 36027 ft | 472 kts | 301° |
| 2026-05-05 09:42 | 37.25453 | 127.21341 | 36057 ft | 473 kts | 301° |
| 2026-05-05 09:42 | 37.29177 | 127.14597 | 36064 ft | 473 kts | 301° |
| 2026-05-05 09:43 | 37.32924 | 127.07802 | 36057 ft | 473 kts | 301° |
| 2026-05-05 09:43 | 37.36665 | 127.00998 | 36065 ft | 473 kts | 301° |
| 2026-05-05 09:44 | 37.39788 | 126.93776 | 36070 ft | 469 kts | 288° |
| 2026-05-05 09:44 | 37.41114 | 126.85795 | 36068 ft | 467 kts | 270° |
| 2026-05-05 09:45 | 37.41227 | 126.77602 | 36084 ft | 470 kts | 268° |
| 2026-05-05 09:45 | 37.41138 | 126.69371 | 36072 ft | 472 kts | 268° |
| 2026-05-05 09:46 | 37.41048 | 126.61109 | 36066 ft | 472 kts | 268° |
| 2026-05-05 09:46 | 37.40986 | 126.52861 | 36075 ft | 471 kts | 268° |
| 2026-05-05 09:47 | 37.40930 | 126.44628 | 36072 ft | 472 kts | 268° |
| 2026-05-05 09:47 | 37.40876 | 126.36403 | 36069 ft | 473 kts | 268° |
| 2026-05-05 09:48 | 37.40816 | 126.28136 | 36067 ft | 473 kts | 268° |
| 2026-05-05 09:48 | 37.40748 | 126.19865 | 36081 ft | 474 kts | 268° |
| 2026-05-05 09:49 | 37.40672 | 126.11554 | 36058 ft | 475 kts | 268° |
| 2026-05-05 09:49 | 37.40592 | 126.03262 | 36065 ft | 473 kts | 268° |
| 2026-05-05 09:50 | 37.40505 | 125.94987 | 36060 ft | 473 kts | 268° |
| 2026-05-05 09:50 | 37.40413 | 125.86720 | 36060 ft | 473 kts | 268° |
| 2026-05-05 09:51 | 37.40315 | 125.78504 | 36053 ft | 473 kts | 268° |
| 2026-05-05 09:51 | 37.40211 | 125.70228 | 36063 ft | 474 kts | 268° |
| 2026-05-05 09:52 | 37.40104 | 125.61915 | 36055 ft | 476 kts | 268° |
| 2026-05-05 09:52 | 37.39989 | 125.53596 | 36046 ft | 476 kts | 268° |
| 2026-05-05 09:53 | 37.39863 | 125.45273 | 36043 ft | 476 kts | 268° |
| 2026-05-05 09:53 | 37.39733 | 125.36950 | 36049 ft | 477 kts | 268° |
| 2026-05-05 09:54 | 37.39599 | 125.28611 | 36049 ft | 477 kts | 268° |
| 2026-05-05 09:54 | 37.39461 | 125.20279 | 36040 ft | 477 kts | 268° |
| 2026-05-05 09:55 | 37.39318 | 125.11919 | 36029 ft | 479 kts | 268° |
| 2026-05-05 09:55 | 37.39167 | 125.03549 | 36027 ft | 479 kts | 268° |
| 2026-05-05 09:56 | 37.39009 | 124.95187 | 36028 ft | 478 kts | 269° |
| 2026-05-05 09:56 | 37.38847 | 124.86844 | 36021 ft | 477 kts | 268° |
| 2026-05-05 09:57 | 37.38680 | 124.78498 | 36025 ft | 478 kts | 268° |
| 2026-05-05 09:57 | 37.38505 | 124.70153 | 36009 ft | 478 kts | 268° |
| 2026-05-05 09:58 | 37.38324 | 124.61802 | 36014 ft | 478 kts | 269° |
| 2026-05-05 09:58 | 37.38136 | 124.53446 | 35998 ft | 478 kts | 268° |
| 2026-05-05 09:59 | 37.37653 | 124.45165 | 36004 ft | 479 kts | 260° |
| 2026-05-05 09:59 | 37.35475 | 124.37259 | 36002 ft | 483 kts | 242° |
| 2026-05-05 10:00 | 37.32038 | 124.29970 | 35999 ft | 487 kts | 238° |
| 2026-05-05 10:00 | 37.28377 | 124.22798 | 36001 ft | 488 kts | 238° |
| 2026-05-05 10:01 | 37.24706 | 124.15627 | 35993 ft | 488 kts | 238° |
| 2026-05-05 10:01 | 37.21025 | 124.08470 | 35993 ft | 488 kts | 237° |
| 2026-05-05 10:02 | 37.17235 | 124.01408 | 36064 ft | 488 kts | 237° |
| 2026-05-05 10:02 | 37.13465 | 123.94333 | 36082 ft | 488 kts | 238° |
| 2026-05-05 10:03 | 37.09791 | 123.87184 | 36084 ft | 488 kts | 238° |
| 2026-05-05 10:03 | 37.06124 | 123.80028 | 36089 ft | 488 kts | 238° |
| 2026-05-05 10:04 | 37.02440 | 123.72890 | 36083 ft | 488 kts | 238° |
| 2026-05-05 10:04 | 36.98747 | 123.65770 | 36074 ft | 488 kts | 238° |
| 2026-05-05 10:05 | 36.95041 | 123.58646 | 36082 ft | 489 kts | 238° |
| 2026-05-05 10:05 | 36.91328 | 123.51523 | 36086 ft | 489 kts | 238° |
| 2026-05-05 10:06 | 36.87687 | 123.44362 | 36071 ft | 487 kts | 243° |
| 2026-05-05 10:06 | 36.85313 | 123.36504 | 36077 ft | 482 kts | 259° |
| 2026-05-05 10:07 | 36.85010 | 123.28238 | 36076 ft | 476 kts | 278° |
| 2026-05-05 10:07 | 36.86521 | 123.20233 | 36073 ft | 473 kts | 286° |
| 2026-05-05 10:08 | 36.88435 | 123.12384 | 36064 ft | 472 kts | 287° |
| 2026-05-05 10:08 | 36.90376 | 123.04562 | 36066 ft | 471 kts | 287° |
| 2026-05-05 10:09 | 36.92281 | 122.96720 | 36065 ft | 471 kts | 287° |
| 2026-05-05 10:09 | 36.94160 | 122.88871 | 36057 ft | 472 kts | 287° |
| 2026-05-05 10:10 | 36.96027 | 122.81018 | 36054 ft | 471 kts | 287° |
| 2026-05-05 10:10 | 36.97890 | 122.73163 | 36054 ft | 471 kts | 287° |
| 2026-05-05 10:11 | 36.99749 | 122.65306 | 36052 ft | 471 kts | 287° |
| 2026-05-05 10:11 | 37.01603 | 122.57446 | 36048 ft | 471 kts | 287° |
| 2026-05-05 10:12 | 37.03450 | 122.49587 | 36049 ft | 471 kts | 287° |
| 2026-05-05 10:12 | 37.05293 | 122.41731 | 36047 ft | 470 kts | 287° |
| 2026-05-05 10:13 | 37.07941 | 122.34278 | 36036 ft | 469 kts | 302° |
| 2026-05-05 10:13 | 37.12164 | 122.28148 | 36046 ft | 465 kts | 319° |
| 2026-05-05 10:14 | 37.16706 | 122.22503 | 36032 ft | 462 kts | 308° |
| 2026-05-05 10:14 | 37.19951 | 122.15563 | 36021 ft | 464 kts | 291° |
| 2026-05-05 10:15 | 37.22128 | 122.07919 | 36034 ft | 467 kts | 288° |
| 2026-05-05 10:15 | 37.24102 | 122.00144 | 36032 ft | 467 kts | 288° |
| 2026-05-05 10:16 | 37.26058 | 121.92378 | 36016 ft | 466 kts | 288° |
| 2026-05-05 10:16 | 37.28035 | 121.84627 | 36012 ft | 466 kts | 288° |
| 2026-05-05 10:17 | 37.30024 | 121.76872 | 36003 ft | 466 kts | 288° |
| 2026-05-05 10:17 | 37.32005 | 121.69136 | 36009 ft | 465 kts | 288° |
| 2026-05-05 10:18 | 37.33978 | 121.61402 | 35996 ft | 465 kts | 288° |
| 2026-05-05 10:18 | 37.35945 | 121.53664 | 35986 ft | 465 kts | 288° |
| 2026-05-05 10:19 | 37.37903 | 121.45934 | 35976 ft | 463 kts | 288° |
| 2026-05-05 10:19 | 37.39853 | 121.38218 | 35979 ft | 463 kts | 288° |
| 2026-05-05 10:20 | 37.41795 | 121.30504 | 35973 ft | 463 kts | 288° |
| 2026-05-05 10:20 | 37.43734 | 121.22784 | 35968 ft | 463 kts | 288° |
| 2026-05-05 10:21 | 37.45691 | 121.15095 | 35962 ft | 461 kts | 290° |
| 2026-05-05 10:21 | 37.48031 | 121.07654 | 35966 ft | 460 kts | 292° |
| 2026-05-05 10:22 | 37.50511 | 121.00239 | 35949 ft | 459 kts | 292° |
| 2026-05-05 10:22 | 37.52937 | 120.92794 | 35951 ft | 460 kts | 292° |
| 2026-05-05 10:23 | 37.55316 | 120.85316 | 35946 ft | 460 kts | 291° |
| 2026-05-05 10:23 | 37.57676 | 120.77827 | 35960 ft | 460 kts | 291° |
| 2026-05-05 10:24 | 37.60064 | 120.70349 | 35955 ft | 460 kts | 292° |
| 2026-05-05 10:24 | 37.62521 | 120.62906 | 35937 ft | 460 kts | 292° |
| 2026-05-05 10:25 | 37.65016 | 120.55489 | 35925 ft | 459 kts | 296° |
| 2026-05-05 10:25 | 37.68064 | 120.48405 | 35932 ft | 459 kts | 299° |
| 2026-05-05 10:26 | 37.71234 | 120.41418 | 35927 ft | 458 kts | 299° |
| 2026-05-05 10:26 | 37.74418 | 120.34459 | 35915 ft | 457 kts | 299° |
| 2026-05-05 10:27 | 37.77587 | 120.27508 | 35898 ft | 456 kts | 299° |
| 2026-05-05 10:27 | 37.80211 | 120.21724 | 35891 ft | 456 kts | 299° |
| 2026-05-05 10:28 | 37.83362 | 120.14762 | 35900 ft | 456 kts | 299° |
| 2026-05-05 10:28 | 37.86506 | 120.07796 | 35900 ft | 455 kts | 299° |
| 2026-05-05 10:29 | 37.89642 | 120.00836 | 35892 ft | 455 kts | 299° |
| 2026-05-05 10:29 | 37.92772 | 119.93874 | 35889 ft | 455 kts | 299° |
| 2026-05-05 10:30 | 37.95895 | 119.86912 | 35889 ft | 455 kts | 299° |
| 2026-05-05 10:30 | 37.99016 | 119.79940 | 35890 ft | 454 kts | 299° |
| 2026-05-05 10:31 | 38.02124 | 119.72982 | 35881 ft | 453 kts | 299° |
| 2026-05-05 10:31 | 38.05225 | 119.66024 | 35878 ft | 453 kts | 299° |
| 2026-05-05 10:32 | 38.08323 | 119.59059 | 35868 ft | 453 kts | 299° |
| 2026-05-05 10:32 | 38.11262 | 119.51985 | 35860 ft | 452 kts | 294° |
| 2026-05-05 10:33 | 38.13749 | 119.44645 | 35858 ft | 452 kts | 293° |
| 2026-05-05 10:33 | 38.16137 | 119.37302 | 35864 ft | 453 kts | 292° |
| 2026-05-05 10:34 | 38.18526 | 119.29902 | 35859 ft | 453 kts | 292° |
| 2026-05-05 10:34 | 38.20916 | 119.22502 | 35851 ft | 452 kts | 293° |
| 2026-05-05 10:35 | 38.23303 | 119.15113 | 35857 ft | 451 kts | 293° |
| 2026-05-05 10:35 | 38.25685 | 119.07727 | 35851 ft | 451 kts | 293° |
| 2026-05-05 10:36 | 38.28062 | 119.00337 | 35842 ft | 451 kts | 293° |
| 2026-05-05 10:36 | 38.30434 | 118.92943 | 35850 ft | 451 kts | 293° |
| 2026-05-05 10:37 | 38.32795 | 118.85559 | 35845 ft | 450 kts | 293° |
| 2026-05-05 10:37 | 38.35149 | 118.78182 | 35845 ft | 450 kts | 293° |
| 2026-05-05 10:38 | 38.37508 | 118.70803 | 35840 ft | 450 kts | 293° |
| 2026-05-05 10:38 | 38.39865 | 118.63421 | 35831 ft | 449 kts | 293° |
| 2026-05-05 10:39 | 38.42209 | 118.56055 | 35836 ft | 448 kts | 293° |
| 2026-05-05 10:39 | 38.44546 | 118.48698 | 35827 ft | 447 kts | 293° |
| 2026-05-05 10:40 | 38.46879 | 118.41335 | 35825 ft | 447 kts | 293° |
| 2026-05-05 10:40 | 38.49203 | 118.33971 | 35825 ft | 447 kts | 293° |
| 2026-05-05 10:41 | 38.51517 | 118.26619 | 35822 ft | 446 kts | 293° |
| 2026-05-05 10:41 | 38.53825 | 118.19272 | 35821 ft | 446 kts | 293° |
| 2026-05-05 10:42 | 38.57284 | 118.08241 | 35811 ft | 445 kts | 294° |
| 2026-05-05 10:43 | 38.60320 | 118.01402 | 35807 ft | 442 kts | 307° |
| 2026-05-05 10:43 | 38.64363 | 117.95525 | 35812 ft | 439 kts | 311° |
| 2026-05-05 10:44 | 38.68559 | 117.89918 | 35811 ft | 439 kts | 313° |
| 2026-05-05 10:44 | 38.72805 | 117.84303 | 35806 ft | 438 kts | 312° |
| 2026-05-05 10:45 | 38.77028 | 117.78677 | 35797 ft | 438 kts | 312° |
| 2026-05-05 10:45 | 38.81238 | 117.73031 | 35794 ft | 438 kts | 312° |
| 2026-05-05 10:46 | 38.85442 | 117.67374 | 35788 ft | 438 kts | 312° |
| 2026-05-05 10:46 | 38.89641 | 117.61715 | 35781 ft | 438 kts | 312° |
| 2026-05-05 10:47 | 38.93843 | 117.56043 | 35771 ft | 438 kts | 312° |
| 2026-05-05 10:47 | 38.98040 | 117.50367 | 35766 ft | 438 kts | 311° |
| 2026-05-05 10:48 | 39.02234 | 117.44685 | 35762 ft | 438 kts | 311° |
| 2026-05-05 10:48 | 39.06013 | 117.38578 | 35764 ft | 436 kts | 300° |
| 2026-05-05 10:49 | 39.08393 | 117.31413 | 35762 ft | 439 kts | 285° |
| 2026-05-05 10:49 | 39.09612 | 117.23683 | 35761 ft | 443 kts | 281° |
| 2026-05-05 10:50 | 39.10617 | 117.15849 | 35753 ft | 444 kts | 280° |
| 2026-05-05 10:50 | 39.11609 | 117.08016 | 35748 ft | 443 kts | 281° |
| 2026-05-05 10:51 | 39.12626 | 117.00185 | 35755 ft | 444 kts | 281° |
| 2026-05-05 10:51 | 39.13748 | 116.92369 | 35750 ft | 443 kts | 282° |
| 2026-05-05 10:52 | 39.15005 | 116.84601 | 35752 ft | 443 kts | 282° |
| 2026-05-05 10:52 | 39.16244 | 116.76903 | 35751 ft | 441 kts | 282° |
| 2026-05-05 10:53 | 39.17461 | 116.69153 | 35748 ft | 441 kts | 282° |
| 2026-05-05 10:53 | 39.18535 | 116.61363 | 35755 ft | 442 kts | 276° |
| 2026-05-05 10:54 | 39.18301 | 116.53420 | 35747 ft | 448 kts | 262° |
| 2026-05-05 10:54 | 39.16744 | 116.45616 | 35743 ft | 452 kts | 257° |
| 2026-05-05 10:55 | 39.14920 | 116.37851 | 35748 ft | 453 kts | 256° |
| 2026-05-05 10:55 | 39.13073 | 116.30097 | 35745 ft | 453 kts | 256° |
| 2026-05-05 10:56 | 39.11247 | 116.22329 | 35747 ft | 454 kts | 256° |
| 2026-05-05 10:56 | 39.09428 | 116.14528 | 35748 ft | 455 kts | 256° |
| 2026-05-05 10:57 | 39.07603 | 116.06725 | 35749 ft | 455 kts | 256° |
| 2026-05-05 10:57 | 39.05774 | 115.98929 | 35742 ft | 455 kts | 256° |
| 2026-05-05 10:58 | 39.03936 | 115.91130 | 35743 ft | 455 kts | 257° |
| 2026-05-05 10:58 | 39.02108 | 115.83395 | 35745 ft | 455 kts | 256° |
| 2026-05-05 10:59 | 39.00261 | 115.75604 | 35741 ft | 456 kts | 257° |
| 2026-05-05 10:59 | 38.98405 | 115.67801 | 35746 ft | 457 kts | 256° |
| 2026-05-05 11:00 | 38.96542 | 115.60001 | 35746 ft | 455 kts | 257° |
| 2026-05-05 11:00 | 38.94664 | 115.52250 | 35751 ft | 455 kts | 255° |
| 2026-05-05 11:01 | 38.92242 | 115.44707 | 35745 ft | 458 kts | 251° |
| 2026-05-05 11:01 | 38.89638 | 115.37226 | 35735 ft | 459 kts | 250° |
| 2026-05-05 11:02 | 38.86991 | 115.29740 | 35748 ft | 460 kts | 251° |
| 2026-05-05 11:02 | 38.84352 | 115.22282 | 35747 ft | 459 kts | 251° |
| 2026-05-05 11:03 | 38.81720 | 115.14832 | 35747 ft | 458 kts | 251° |
| 2026-05-05 11:03 | 38.79088 | 115.07390 | 35747 ft | 458 kts | 251° |
| 2026-05-05 11:04 | 38.76451 | 114.99956 | 35740 ft | 459 kts | 251° |
| 2026-05-05 11:04 | 38.73801 | 114.92503 | 35748 ft | 460 kts | 251° |
| 2026-05-05 11:05 | 38.71151 | 114.85055 | 35746 ft | 459 kts | 251° |
| 2026-05-05 11:05 | 38.68498 | 114.77613 | 35742 ft | 459 kts | 251° |
| 2026-05-05 11:06 | 38.65839 | 114.70180 | 35743 ft | 459 kts | 251° |
| 2026-05-05 11:06 | 38.63174 | 114.62748 | 35739 ft | 461 kts | 251° |
| 2026-05-05 11:07 | 38.60488 | 114.55301 | 35735 ft | 461 kts | 251° |
| 2026-05-05 11:07 | 38.57802 | 114.47913 | 35734 ft | 462 kts | 251° |
| 2026-05-05 11:08 | 38.55100 | 114.40460 | 35738 ft | 462 kts | 251° |
| 2026-05-05 11:08 | 38.52399 | 114.33023 | 35733 ft | 461 kts | 252° |
| 2026-05-05 11:09 | 38.49696 | 114.25593 | 35741 ft | 462 kts | 252° |
| 2026-05-05 11:09 | 38.46984 | 114.18159 | 35739 ft | 462 kts | 252° |
| 2026-05-05 11:10 | 38.44269 | 114.10736 | 35744 ft | 462 kts | 252° |
| 2026-05-05 11:10 | 38.41547 | 114.03316 | 35746 ft | 462 kts | 252° |
| 2026-05-05 11:11 | 38.38823 | 113.95917 | 35763 ft | 461 kts | 252° |
| 2026-05-05 11:11 | 38.36108 | 113.88513 | 35751 ft | 464 kts | 252° |
| 2026-05-05 11:12 | 38.33361 | 113.81042 | 35768 ft | 465 kts | 252° |
| 2026-05-05 11:12 | 38.30569 | 113.73606 | 35776 ft | 464 kts | 251° |
| 2026-05-05 11:13 | 38.27768 | 113.66241 | 35774 ft | 461 kts | 252° |
| 2026-05-05 11:13 | 38.24985 | 113.58898 | 35777 ft | 460 kts | 252° |
| 2026-05-05 11:14 | 38.22204 | 113.51551 | 35781 ft | 463 kts | 252° |
| 2026-05-05 11:14 | 38.19401 | 113.44155 | 35787 ft | 465 kts | 251° |
| 2026-05-05 11:15 | 38.16583 | 113.36779 | 35782 ft | 461 kts | 252° |
| 2026-05-05 11:15 | 38.13852 | 113.29500 | 35801 ft | 459 kts | 252° |
| 2026-05-05 11:16 | 38.11128 | 113.22159 | 35795 ft | 460 kts | 252° |
| 2026-05-05 11:16 | 38.08388 | 113.14801 | 35804 ft | 463 kts | 252° |
| 2026-05-05 11:17 | 38.05619 | 113.07402 | 35811 ft | 463 kts | 252° |
| 2026-05-05 11:17 | 38.03303 | 113.01277 | 35802 ft | 457 kts | 252° |
| 2026-05-05 11:18 | 38.00554 | 112.93994 | 35804 ft | 457 kts | 252° |
| 2026-05-05 11:18 | 37.97828 | 112.86760 | 35804 ft | 458 kts | 252° |
| 2026-05-05 11:19 | 37.95065 | 112.79454 | 35789 ft | 461 kts | 252° |
| 2026-05-05 11:19 | 37.92285 | 112.72130 | 35800 ft | 460 kts | 251° |
| 2026-05-05 11:20 | 37.89518 | 112.64857 | 35793 ft | 458 kts | 251° |
| 2026-05-05 11:20 | 37.86751 | 112.57596 | 35794 ft | 458 kts | 251° |
| 2026-05-05 11:21 | 37.83786 | 112.50422 | 35794 ft | 461 kts | 249° |
| 2026-05-05 11:21 | 37.80705 | 112.43299 | 35795 ft | 461 kts | 249° |
| 2026-05-05 11:22 | 37.78447 | 112.35869 | 35804 ft | 446 kts | 263° |
| 2026-05-05 11:22 | 37.77952 | 112.28246 | 35823 ft | 430 kts | 279° |
| 2026-05-05 11:23 | 37.78541 | 112.20767 | 35819 ft | 426 kts | 281° |
| 2026-05-05 11:23 | 37.79293 | 112.13342 | 35828 ft | 426 kts | 281° |
| 2026-05-05 11:24 | 37.80049 | 112.05913 | 35833 ft | 426 kts | 281° |
| 2026-05-05 11:24 | 37.80774 | 111.98477 | 35837 ft | 426 kts | 280° |
| 2026-05-05 11:25 | 37.81480 | 111.91031 | 35837 ft | 426 kts | 281° |
| 2026-05-05 11:25 | 37.82181 | 111.83644 | 35839 ft | 426 kts | 281° |
| 2026-05-05 11:26 | 37.82870 | 111.76194 | 35839 ft | 424 kts | 280° |
| 2026-05-05 11:26 | 37.83556 | 111.68813 | 35833 ft | 421 kts | 281° |
| 2026-05-05 11:27 | 37.84355 | 111.61470 | 35836 ft | 421 kts | 282° |
| 2026-05-05 11:27 | 37.85826 | 111.54374 | 35841 ft | 415 kts | 294° |
| 2026-05-05 11:28 | 37.88637 | 111.48064 | 35828 ft | 411 kts | 307° |
| 2026-05-05 11:28 | 37.92676 | 111.42949 | 35828 ft | 412 kts | 317° |
| 2026-05-05 11:29 | 37.97164 | 111.38443 | 35816 ft | 411 kts | 319° |
| 2026-05-05 11:29 | 38.01700 | 111.34031 | 35814 ft | 411 kts | 319° |
| 2026-05-05 11:30 | 38.06227 | 111.29600 | 35804 ft | 410 kts | 319° |
| 2026-05-05 11:30 | 38.10730 | 111.25158 | 35789 ft | 409 kts | 318° |
| 2026-05-05 11:31 | 38.15214 | 111.20704 | 35798 ft | 409 kts | 318° |
| 2026-05-05 11:31 | 38.19696 | 111.16249 | 35786 ft | 409 kts | 318° |
| 2026-05-05 11:32 | 38.24159 | 111.11824 | 35765 ft | 410 kts | 318° |
| 2026-05-05 11:32 | 38.28656 | 111.07350 | 35758 ft | 410 kts | 318° |
| 2026-05-05 11:33 | 38.33155 | 111.02859 | 35769 ft | 411 kts | 317° |
| 2026-05-05 11:33 | 38.37648 | 110.98367 | 35743 ft | 410 kts | 317° |
| 2026-05-05 11:34 | 38.42138 | 110.93875 | 35746 ft | 410 kts | 317° |
| 2026-05-05 11:34 | 38.46624 | 110.89380 | 35744 ft | 410 kts | 317° |
| 2026-05-05 11:35 | 38.51104 | 110.84882 | 35721 ft | 410 kts | 317° |
| 2026-05-05 11:35 | 38.55582 | 110.80376 | 35699 ft | 410 kts | 317° |
| 2026-05-05 11:36 | 38.60077 | 110.75849 | 35730 ft | 412 kts | 317° |
| 2026-05-05 11:36 | 38.64568 | 110.71318 | 35712 ft | 410 kts | 317° |
| 2026-05-05 11:37 | 38.69045 | 110.66788 | 35713 ft | 410 kts | 317° |
| 2026-05-05 11:37 | 38.73515 | 110.62265 | 35710 ft | 409 kts | 317° |
| 2026-05-05 11:38 | 38.77984 | 110.57737 | 35709 ft | 410 kts | 317° |
| 2026-05-05 11:38 | 38.82454 | 110.53200 | 35711 ft | 410 kts | 317° |
| 2026-05-05 11:39 | 38.86896 | 110.48683 | 35716 ft | 410 kts | 316° |
| 2026-05-05 11:39 | 38.91358 | 110.44138 | 35701 ft | 410 kts | 316° |
| 2026-05-05 11:40 | 38.95827 | 110.39580 | 35705 ft | 410 kts | 316° |
| 2026-05-05 11:40 | 39.00314 | 110.35051 | 35704 ft | 410 kts | 316° |
| 2026-05-05 11:41 | 39.04809 | 110.30527 | 35702 ft | 410 kts | 316° |
| 2026-05-05 11:41 | 39.09304 | 110.25992 | 35699 ft | 411 kts | 316° |
| 2026-05-05 11:42 | 39.13679 | 110.21282 | 35708 ft | 407 kts | 310° |
| 2026-05-05 11:42 | 39.17118 | 110.15569 | 35698 ft | 403 kts | 297° |
| 2026-05-05 11:43 | 39.19216 | 110.08891 | 35695 ft | 405 kts | 284° |
| 2026-05-05 11:43 | 39.19953 | 110.01667 | 35698 ft | 409 kts | 276° |
| 2026-05-05 11:44 | 39.20290 | 109.94319 | 35694 ft | 411 kts | 275° |
| 2026-05-05 11:44 | 39.20586 | 109.86962 | 35700 ft | 411 kts | 275° |
| 2026-05-05 11:45 | 39.20904 | 109.79604 | 35704 ft | 411 kts | 275° |
| 2026-05-05 11:45 | 39.21236 | 109.72264 | 35689 ft | 410 kts | 275° |
| 2026-05-05 11:46 | 39.21568 | 109.64953 | 35694 ft | 412 kts | 275° |
| 2026-05-05 11:46 | 39.21897 | 109.57578 | 35693 ft | 413 kts | 275° |
| 2026-05-05 11:47 | 39.22219 | 109.50185 | 35693 ft | 413 kts | 275° |
| 2026-05-05 11:47 | 39.22524 | 109.42795 | 35691 ft | 413 kts | 274° |
| 2026-05-05 11:48 | 39.22934 | 109.31700 | 35693 ft | 413 kts | 274° |
| 2026-05-05 11:48 | 39.23206 | 109.24306 | 35691 ft | 413 kts | 274° |
| 2026-05-05 11:49 | 39.23477 | 109.16909 | 35690 ft | 413 kts | 274° |
| 2026-05-05 11:49 | 39.23744 | 109.09513 | 35692 ft | 413 kts | 274° |
| 2026-05-05 11:50 | 39.24006 | 109.02109 | 35690 ft | 413 kts | 274° |
| 2026-05-05 11:50 | 39.24263 | 108.94712 | 35694 ft | 413 kts | 274° |
| 2026-05-05 11:51 | 39.24517 | 108.87313 | 35693 ft | 413 kts | 274° |
| 2026-05-05 11:51 | 39.24766 | 108.79907 | 35701 ft | 413 kts | 274° |
| 2026-05-05 11:52 | 39.25013 | 108.72501 | 35696 ft | 413 kts | 274° |
| 2026-05-05 11:52 | 39.25252 | 108.65149 | 35701 ft | 413 kts | 274° |
| 2026-05-05 11:53 | 39.25488 | 108.57747 | 35699 ft | 413 kts | 274° |
| 2026-05-05 11:53 | 39.25719 | 108.50351 | 35697 ft | 413 kts | 273° |
| 2026-05-05 11:54 | 39.25947 | 108.42946 | 35703 ft | 413 kts | 273° |
| 2026-05-05 11:54 | 39.26170 | 108.35541 | 35705 ft | 413 kts | 273° |
| 2026-05-05 11:55 | 39.26388 | 108.28138 | 35700 ft | 413 kts | 273° |
| 2026-05-05 11:55 | 39.26665 | 108.20743 | 35702 ft | 412 kts | 276° |
| 2026-05-05 11:56 | 39.27914 | 108.13697 | 35705 ft | 412 kts | 288° |
| 2026-05-05 11:56 | 39.30625 | 108.07170 | 35703 ft | 416 kts | 302° |
| 2026-05-05 11:57 | 39.34663 | 108.01742 | 35706 ft | 422 kts | 312° |
| 2026-05-05 11:57 | 39.39151 | 107.96845 | 35704 ft | 422 kts | 314° |
| 2026-05-05 11:58 | 39.43686 | 107.92013 | 35704 ft | 422 kts | 314° |
| 2026-05-05 11:58 | 39.48204 | 107.87159 | 35701 ft | 422 kts | 313° |
| 2026-05-05 11:59 | 39.52703 | 107.82283 | 35724 ft | 422 kts | 313° |
| 2026-05-05 11:59 | 39.57183 | 107.77407 | 35703 ft | 419 kts | 313° |
| 2026-05-05 12:00 | 39.61645 | 107.72542 | 35707 ft | 419 kts | 313° |
| 2026-05-05 12:00 | 39.66108 | 107.67667 | 35707 ft | 419 kts | 313° |
| 2026-05-05 12:01 | 39.70572 | 107.62783 | 35704 ft | 420 kts | 313° |
| 2026-05-05 12:01 | 39.75032 | 107.57894 | 35703 ft | 420 kts | 313° |
| 2026-05-05 12:02 | 39.79491 | 107.53000 | 35707 ft | 420 kts | 313° |
| 2026-05-05 12:02 | 39.83949 | 107.48098 | 35698 ft | 420 kts | 313° |
| 2026-05-05 12:03 | 39.88404 | 107.43190 | 35703 ft | 420 kts | 313° |
| 2026-05-05 12:03 | 39.92860 | 107.38273 | 35707 ft | 420 kts | 312° |
| 2026-05-05 12:04 | 39.97313 | 107.33351 | 35697 ft | 420 kts | 312° |
| 2026-05-05 12:04 | 40.01769 | 107.28416 | 35697 ft | 420 kts | 312° |
| 2026-05-05 12:05 | 40.06191 | 107.23512 | 35700 ft | 420 kts | 312° |
| 2026-05-05 12:05 | 40.10634 | 107.18575 | 35691 ft | 419 kts | 312° |
| 2026-05-05 12:06 | 40.15069 | 107.13637 | 35691 ft | 419 kts | 311° |
| 2026-05-05 12:06 | 40.19505 | 107.08688 | 35693 ft | 419 kts | 311° |
| 2026-05-05 12:07 | 40.23934 | 107.03739 | 35675 ft | 419 kts | 311° |
| 2026-05-05 12:07 | 40.27552 | 106.99509 | 35683 ft | 417 kts | 307° |
| 2026-05-05 12:08 | 40.31012 | 106.93555 | 35712 ft | 407 kts | 294° |
| 2026-05-05 12:08 | 40.33234 | 106.86826 | 35684 ft | 402 kts | 287° |
| 2026-05-05 12:09 | 40.35084 | 106.79911 | 35682 ft | 402 kts | 285° |
| 2026-05-05 12:09 | 40.36885 | 106.72968 | 35667 ft | 402 kts | 285° |
| 2026-05-05 12:10 | 40.38703 | 106.66022 | 35677 ft | 404 kts | 285° |
| 2026-05-05 12:10 | 40.40538 | 106.59060 | 35686 ft | 404 kts | 285° |
| 2026-05-05 12:11 | 40.42377 | 106.52085 | 35692 ft | 404 kts | 285° |
| 2026-05-05 12:11 | 40.44210 | 106.45109 | 35697 ft | 404 kts | 285° |
| 2026-05-05 12:12 | 40.46041 | 106.38121 | 35701 ft | 404 kts | 285° |
| 2026-05-05 12:12 | 40.47867 | 106.31132 | 35709 ft | 405 kts | 285° |
| 2026-05-05 12:13 | 40.49696 | 106.24111 | 35710 ft | 407 kts | 285° |
| 2026-05-05 12:13 | 40.51524 | 106.17068 | 35716 ft | 407 kts | 285° |
| 2026-05-05 12:14 | 40.53348 | 106.10023 | 35728 ft | 407 kts | 285° |
| 2026-05-05 12:14 | 40.55167 | 106.02978 | 35735 ft | 407 kts | 285° |
| 2026-05-05 12:15 | 40.56983 | 105.95929 | 35731 ft | 408 kts | 285° |
| 2026-05-05 12:15 | 40.58802 | 105.88840 | 35761 ft | 409 kts | 285° |
| 2026-05-05 12:16 | 40.60619 | 105.81736 | 35758 ft | 409 kts | 285° |
| 2026-05-05 12:16 | 40.62431 | 105.74637 | 35763 ft | 409 kts | 285° |
| 2026-05-05 12:17 | 40.64240 | 105.67528 | 35761 ft | 410 kts | 285° |
| 2026-05-05 12:17 | 40.66046 | 105.60408 | 35762 ft | 411 kts | 285° |
| 2026-05-05 12:18 | 40.67855 | 105.53253 | 35767 ft | 412 kts | 285° |
| 2026-05-05 12:18 | 40.69662 | 105.46088 | 35769 ft | 412 kts | 285° |
| 2026-05-05 12:19 | 40.71465 | 105.38921 | 35772 ft | 412 kts | 284° |
| 2026-05-05 12:19 | 40.73263 | 105.31746 | 35774 ft | 412 kts | 284° |
| 2026-05-05 12:20 | 40.75057 | 105.24572 | 35778 ft | 412 kts | 284° |
| 2026-05-05 12:20 | 40.76832 | 105.17448 | 35805 ft | 411 kts | 284° |
| 2026-05-05 12:21 | 40.78609 | 105.10293 | 35788 ft | 409 kts | 284° |
| 2026-05-05 12:21 | 40.80388 | 105.03108 | 35791 ft | 409 kts | 284° |
| 2026-05-05 12:22 | 40.82152 | 104.95965 | 35789 ft | 409 kts | 284° |
| 2026-05-05 12:22 | 40.83911 | 104.88821 | 35784 ft | 408 kts | 284° |
| 2026-05-05 12:23 | 40.85647 | 104.81747 | 35786 ft | 408 kts | 283° |
| 2026-05-05 12:23 | 40.87390 | 104.74622 | 35787 ft | 407 kts | 283° |
| 2026-05-05 12:24 | 40.89127 | 104.67497 | 35786 ft | 407 kts | 283° |
| 2026-05-05 12:24 | 40.90861 | 104.60370 | 35783 ft | 407 kts | 283° |
| 2026-05-05 12:25 | 40.92590 | 104.53238 | 35790 ft | 407 kts | 283° |
| 2026-05-05 12:25 | 40.94314 | 104.46104 | 35786 ft | 407 kts | 283° |
| 2026-05-05 12:26 | 40.96035 | 104.38965 | 35786 ft | 407 kts | 283° |
| 2026-05-05 12:26 | 40.97751 | 104.31825 | 35781 ft | 407 kts | 283° |
| 2026-05-05 12:27 | 40.99626 | 104.24737 | 35780 ft | 409 kts | 286° |
| 2026-05-05 12:27 | 41.01718 | 104.17739 | 35783 ft | 408 kts | 286° |
| 2026-05-05 12:28 | 41.03779 | 104.10807 | 35780 ft | 407 kts | 286° |
| 2026-05-05 12:28 | 41.05819 | 104.03773 | 35778 ft | 406 kts | 285° |
| 2026-05-05 12:29 | 41.07811 | 103.96817 | 35780 ft | 406 kts | 285° |
| 2026-05-05 12:29 | 41.09808 | 103.89814 | 35780 ft | 406 kts | 285° |
| 2026-05-05 12:30 | 41.11804 | 103.82801 | 35783 ft | 407 kts | 285° |
| 2026-05-05 12:30 | 41.13801 | 103.75766 | 35780 ft | 408 kts | 285° |
| 2026-05-05 12:31 | 41.15798 | 103.68718 | 35779 ft | 408 kts | 285° |
| 2026-05-05 12:31 | 41.17792 | 103.61667 | 35819 ft | 408 kts | 285° |
| 2026-05-05 12:32 | 41.19772 | 103.54647 | 35779 ft | 404 kts | 285° |
| 2026-05-05 12:32 | 41.21734 | 103.47661 | 35768 ft | 404 kts | 285° |
| 2026-05-05 12:33 | 41.23701 | 103.40631 | 35786 ft | 408 kts | 285° |
| 2026-05-05 12:33 | 41.25676 | 103.33560 | 35786 ft | 408 kts | 285° |
| 2026-05-05 12:34 | 41.27646 | 103.26496 | 35783 ft | 408 kts | 285° |
| 2026-05-05 12:34 | 41.29611 | 103.19423 | 35792 ft | 408 kts | 285° |
| 2026-05-05 12:35 | 41.31571 | 103.12352 | 35777 ft | 408 kts | 285° |
| 2026-05-05 12:35 | 41.33532 | 103.05253 | 35791 ft | 409 kts | 284° |
| 2026-05-05 12:36 | 41.35493 | 102.98139 | 36006 ft | 409 kts | 284° |
| 2026-05-05 12:36 | 41.36493 | 102.94593 | 36213 ft | 409 kts | 285° |
| 2026-05-05 12:36 | 41.37511 | 102.91069 | 36411 ft | 407 kts | 285° |
| 2026-05-05 12:37 | 41.38520 | 102.87609 | 36610 ft | 406 kts | 285° |
| 2026-05-05 12:37 | 41.39541 | 102.84109 | 36804 ft | 405 kts | 285° |
| 2026-05-05 12:37 | 41.40556 | 102.80615 | 36964 ft | 404 kts | 285° |
| 2026-05-05 12:37 | 41.41564 | 102.77130 | 37125 ft | 403 kts | 285° |
| 2026-05-05 12:38 | 41.42568 | 102.73645 | 37261 ft | 403 kts | 284° |
| 2026-05-05 12:38 | 41.43568 | 102.70162 | 37397 ft | 402 kts | 284° |
| 2026-05-05 12:38 | 41.44569 | 102.66684 | 37543 ft | 401 kts | 284° |
| 2026-05-05 12:38 | 41.45568 | 102.63218 | 37698 ft | 400 kts | 284° |
| 2026-05-05 12:39 | 41.46564 | 102.59754 | 37805 ft | 401 kts | 284° |
| 2026-05-05 12:39 | 41.47562 | 102.56276 | 37811 ft | 403 kts | 284° |
| 2026-05-05 12:39 | 41.49565 | 102.49274 | 37814 ft | 405 kts | 284° |
| 2026-05-05 12:40 | 41.51570 | 102.42260 | 37820 ft | 404 kts | 284° |
| 2026-05-05 12:40 | 41.53570 | 102.35247 | 37826 ft | 403 kts | 284° |
| 2026-05-05 12:41 | 41.55559 | 102.28254 | 37836 ft | 403 kts | 284° |
| 2026-05-05 12:41 | 41.57540 | 102.21263 | 37834 ft | 402 kts | 284° |
| 2026-05-05 12:42 | 41.59515 | 102.14272 | 37838 ft | 402 kts | 283° |
| 2026-05-05 12:42 | 41.61487 | 102.07275 | 37852 ft | 402 kts | 283° |
| 2026-05-05 12:43 | 41.63455 | 102.00272 | 37854 ft | 403 kts | 283° |
| 2026-05-05 12:43 | 41.65427 | 101.93232 | 37856 ft | 405 kts | 283° |
| 2026-05-05 12:44 | 41.67400 | 101.86177 | 37875 ft | 405 kts | 283° |
| 2026-05-05 12:44 | 41.69367 | 101.79124 | 37860 ft | 405 kts | 283° |
| 2026-05-05 12:45 | 41.71315 | 101.72117 | 37875 ft | 405 kts | 283° |
| 2026-05-05 12:45 | 41.73273 | 101.65054 | 37870 ft | 405 kts | 283° |
| 2026-05-05 12:46 | 41.75231 | 101.57968 | 37880 ft | 406 kts | 283° |
| 2026-05-05 12:46 | 41.77184 | 101.50880 | 37892 ft | 406 kts | 283° |
| 2026-05-05 12:47 | 41.79139 | 101.43770 | 37887 ft | 406 kts | 283° |
| 2026-05-05 12:47 | 41.81085 | 101.36667 | 37891 ft | 406 kts | 283° |
| 2026-05-05 12:48 | 41.83028 | 101.29559 | 37890 ft | 406 kts | 282° |
| 2026-05-05 12:48 | 41.84639 | 101.22341 | 37893 ft | 401 kts | 274° |
| 2026-05-05 12:49 | 41.85155 | 101.14951 | 37894 ft | 398 kts | 268° |
| 2026-05-05 12:49 | 41.85354 | 101.07530 | 37898 ft | 398 kts | 267° |
| 2026-05-05 12:50 | 41.85502 | 101.00097 | 37915 ft | 399 kts | 267° |
| 2026-05-05 12:50 | 41.85659 | 100.92662 | 37916 ft | 399 kts | 267° |
| 2026-05-05 12:51 | 41.85825 | 100.85229 | 37907 ft | 399 kts | 267° |
| 2026-05-05 12:51 | 41.85990 | 100.77794 | 37919 ft | 399 kts | 267° |
| 2026-05-05 12:52 | 41.86150 | 100.70360 | 37908 ft | 399 kts | 267° |
| 2026-05-05 12:52 | 41.86304 | 100.62980 | 37922 ft | 399 kts | 267° |
| 2026-05-05 12:53 | 41.86454 | 100.55548 | 37911 ft | 399 kts | 266° |
| 2026-05-05 12:53 | 41.86599 | 100.48073 | 37922 ft | 403 kts | 266° |
| 2026-05-05 12:54 | 41.86809 | 100.36775 | 37925 ft | 404 kts | 266° |
| 2026-05-05 12:55 | 41.86944 | 100.29243 | 37926 ft | 404 kts | 266° |
| 2026-05-05 12:55 | 41.87074 | 100.21710 | 37919 ft | 404 kts | 266° |
| 2026-05-05 12:56 | 41.87199 | 100.14174 | 37926 ft | 406 kts | 266° |
| 2026-05-05 12:56 | 41.87298 | 100.07873 | 37928 ft | 407 kts | 266° |
| 2026-05-05 12:57 | 41.87415 | 100.00282 | 37928 ft | 407 kts | 266° |
| 2026-05-05 12:57 | 41.87527 | 99.92694 | 37936 ft | 407 kts | 266° |
| 2026-05-05 12:58 | 41.87634 | 99.85105 | 37940 ft | 407 kts | 266° |
| 2026-05-05 12:58 | 41.87736 | 99.77533 | 37944 ft | 404 kts | 265° |
| 2026-05-05 12:59 | 41.87832 | 99.70005 | 37929 ft | 403 kts | 265° |
| 2026-05-05 12:59 | 41.87922 | 99.62491 | 37948 ft | 403 kts | 265° |
| 2026-05-05 13:00 | 41.88048 | 99.51222 | 37946 ft | 402 kts | 265° |
| 2026-05-05 13:01 | 41.88200 | 99.36216 | 37955 ft | 402 kts | 265° |
| 2026-05-05 13:01 | 41.88268 | 99.28697 | 37955 ft | 403 kts | 265° |
| 2026-05-05 13:02 | 41.88332 | 99.21187 | 37963 ft | 403 kts | 265° |
| 2026-05-05 13:02 | 41.88390 | 99.13727 | 37961 ft | 403 kts | 265° |
| 2026-05-05 13:03 | 41.88445 | 99.06212 | 37967 ft | 403 kts | 264° |
| 2026-05-05 13:03 | 41.88494 | 98.98647 | 37977 ft | 408 kts | 264° |
| 2026-05-05 13:04 | 41.88537 | 98.91022 | 37981 ft | 409 kts | 264° |
| 2026-05-05 13:04 | 41.88578 | 98.83386 | 37978 ft | 409 kts | 264° |
| 2026-05-05 13:05 | 41.88613 | 98.75764 | 37982 ft | 409 kts | 264° |
| 2026-05-05 13:05 | 41.88643 | 98.68137 | 37990 ft | 409 kts | 264° |
| 2026-05-05 13:06 | 41.88667 | 98.60493 | 37994 ft | 410 kts | 264° |
| 2026-05-05 13:06 | 41.88687 | 98.52836 | 37986 ft | 410 kts | 264° |
| 2026-05-05 13:07 | 41.88701 | 98.45185 | 37991 ft | 410 kts | 264° |
| 2026-05-05 13:07 | 41.88710 | 98.37531 | 37987 ft | 410 kts | 264° |
| 2026-05-05 13:08 | 41.88715 | 98.29885 | 38002 ft | 410 kts | 264° |
| 2026-05-05 13:08 | 41.88714 | 98.22211 | 37994 ft | 412 kts | 263° |
| 2026-05-05 13:09 | 41.88708 | 98.14525 | 37997 ft | 412 kts | 263° |
| 2026-05-05 13:09 | 41.88697 | 98.06839 | 37995 ft | 412 kts | 263° |
| 2026-05-05 13:10 | 41.88681 | 97.99149 | 38002 ft | 412 kts | 263° |
| 2026-05-05 13:10 | 41.88660 | 97.91505 | 38001 ft | 413 kts | 263° |
| 2026-05-05 13:11 | 41.88634 | 97.83794 | 37993 ft | 413 kts | 263° |
| 2026-05-05 13:11 | 41.88602 | 97.76081 | 38008 ft | 413 kts | 263° |
| 2026-05-05 13:12 | 41.88566 | 97.68372 | 38016 ft | 413 kts | 263° |
| 2026-05-05 13:12 | 41.88523 | 97.60666 | 38018 ft | 413 kts | 263° |
| 2026-05-05 13:13 | 41.88477 | 97.52955 | 38015 ft | 414 kts | 263° |
| 2026-05-05 13:13 | 41.88424 | 97.45236 | 38032 ft | 414 kts | 263° |
| 2026-05-05 13:14 | 41.88366 | 97.37510 | 38024 ft | 414 kts | 263° |
| 2026-05-05 13:14 | 41.88304 | 97.29788 | 38014 ft | 414 kts | 263° |
| 2026-05-05 13:15 | 41.88236 | 97.22074 | 38040 ft | 414 kts | 263° |
| 2026-05-05 13:15 | 41.88163 | 97.14360 | 38048 ft | 413 kts | 263° |
| 2026-05-05 13:16 | 41.88085 | 97.06641 | 38040 ft | 414 kts | 263° |
| 2026-05-05 13:16 | 41.88002 | 96.98934 | 38053 ft | 414 kts | 263° |
| 2026-05-05 13:17 | 41.87913 | 96.91212 | 38055 ft | 414 kts | 263° |
| 2026-05-05 13:17 | 41.87819 | 96.83499 | 38059 ft | 413 kts | 262° |
| 2026-05-05 13:18 | 41.87721 | 96.75786 | 38066 ft | 413 kts | 262° |
| 2026-05-05 13:18 | 41.87617 | 96.68079 | 38071 ft | 413 kts | 262° |
| 2026-05-05 13:19 | 41.87508 | 96.60369 | 38064 ft | 413 kts | 262° |
| 2026-05-05 13:19 | 41.87394 | 96.52653 | 38082 ft | 413 kts | 262° |
| 2026-05-05 13:20 | 41.87275 | 96.44947 | 38077 ft | 413 kts | 262° |
| 2026-05-05 13:20 | 41.87150 | 96.37249 | 38084 ft | 413 kts | 262° |
| 2026-05-05 13:21 | 41.87021 | 96.29548 | 38087 ft | 413 kts | 262° |
| 2026-05-05 13:21 | 41.86891 | 96.21848 | 38099 ft | 413 kts | 263° |
| 2026-05-05 13:22 | 41.86842 | 96.14191 | 38101 ft | 413 kts | 263° |
| 2026-05-05 13:22 | 41.86820 | 96.06476 | 38095 ft | 413 kts | 263° |
| 2026-05-05 13:23 | 41.86784 | 95.98774 | 38099 ft | 413 kts | 263° |
| 2026-05-05 13:23 | 41.86732 | 95.91072 | 38103 ft | 413 kts | 263° |
| 2026-05-05 13:24 | 41.86672 | 95.83376 | 38101 ft | 413 kts | 263° |
| 2026-05-05 13:24 | 41.86606 | 95.75678 | 38099 ft | 413 kts | 263° |
| 2026-05-05 13:25 | 41.86536 | 95.67982 | 38099 ft | 413 kts | 263° |
| 2026-05-05 13:25 | 41.86460 | 95.60248 | 38087 ft | 415 kts | 263° |
| 2026-05-05 13:26 | 41.86379 | 95.52500 | 38089 ft | 415 kts | 263° |
| 2026-05-05 13:26 | 41.86294 | 95.44752 | 38081 ft | 415 kts | 263° |
| 2026-05-05 13:27 | 41.86203 | 95.37003 | 38075 ft | 415 kts | 263° |
| 2026-05-05 13:27 | 41.86174 | 95.29244 | 38067 ft | 419 kts | 266° |
| 2026-05-05 13:28 | 41.87216 | 95.21423 | 38087 ft | 435 kts | 280° |
| 2026-05-05 13:28 | 41.89950 | 95.14059 | 38068 ft | 451 kts | 296° |
| 2026-05-05 13:29 | 41.93939 | 95.07530 | 38070 ft | 457 kts | 301° |
| 2026-05-05 13:29 | 41.98168 | 95.01152 | 38058 ft | 457 kts | 302° |
| 2026-05-05 13:30 | 42.02397 | 94.94782 | 38061 ft | 456 kts | 302° |
| 2026-05-05 13:30 | 42.06589 | 94.88389 | 38052 ft | 455 kts | 302° |
| 2026-05-05 13:31 | 42.10758 | 94.81978 | 38058 ft | 454 kts | 302° |
| 2026-05-05 13:31 | 42.14885 | 94.75617 | 38038 ft | 449 kts | 302° |
| 2026-05-05 13:32 | 42.18989 | 94.69277 | 38027 ft | 449 kts | 302° |
| 2026-05-05 13:32 | 42.23087 | 94.62930 | 38028 ft | 448 kts | 302° |
| 2026-05-05 13:33 | 42.27183 | 94.56574 | 38014 ft | 448 kts | 302° |
| 2026-05-05 13:33 | 42.31267 | 94.50227 | 38022 ft | 447 kts | 302° |
| 2026-05-05 13:34 | 42.35338 | 94.43886 | 38019 ft | 446 kts | 302° |
| 2026-05-05 13:34 | 42.39393 | 94.37557 | 38014 ft | 445 kts | 302° |
| 2026-05-05 13:35 | 42.43439 | 94.31224 | 38017 ft | 445 kts | 302° |
| 2026-05-05 13:35 | 42.47481 | 94.24885 | 38017 ft | 445 kts | 301° |
| 2026-05-05 13:36 | 42.51522 | 94.18535 | 38027 ft | 445 kts | 302° |
| 2026-05-05 13:36 | 42.55567 | 94.12164 | 38033 ft | 446 kts | 302° |
| 2026-05-05 13:37 | 42.59616 | 94.05773 | 38019 ft | 447 kts | 302° |
| 2026-05-05 13:37 | 42.63664 | 93.99372 | 38033 ft | 447 kts | 302° |
| 2026-05-05 13:38 | 42.67710 | 93.92959 | 38017 ft | 447 kts | 302° |
| 2026-05-05 13:38 | 42.71725 | 93.86581 | 38030 ft | 447 kts | 302° |
| 2026-05-05 13:39 | 42.75790 | 93.80110 | 38064 ft | 447 kts | 302° |
| 2026-05-05 13:39 | 42.79806 | 93.73701 | 38020 ft | 449 kts | 302° |
| 2026-05-05 13:40 | 42.83547 | 93.66988 | 38024 ft | 439 kts | 293° |
| 2026-05-05 13:40 | 42.86013 | 93.59479 | 38026 ft | 433 kts | 284° |
| 2026-05-05 13:41 | 42.87997 | 93.51730 | 38032 ft | 433 kts | 283° |
| 2026-05-05 13:41 | 42.89905 | 93.43928 | 38038 ft | 434 kts | 283° |
| 2026-05-05 13:42 | 42.91818 | 93.36129 | 38042 ft | 434 kts | 283° |
| 2026-05-05 13:42 | 42.93745 | 93.28327 | 38028 ft | 434 kts | 283° |
| 2026-05-05 13:43 | 42.95672 | 93.20527 | 38010 ft | 434 kts | 283° |
| 2026-05-05 13:43 | 42.97594 | 93.12724 | 38018 ft | 434 kts | 283° |
| 2026-05-05 13:44 | 42.99510 | 93.04910 | 38062 ft | 434 kts | 283° |
| 2026-05-05 13:44 | 43.01099 | 92.98412 | 38034 ft | 434 kts | 283° |
| 2026-05-05 13:45 | 43.03004 | 92.90595 | 38041 ft | 434 kts | 283° |
| 2026-05-05 13:45 | 43.04906 | 92.82767 | 38033 ft | 434 kts | 283° |
| 2026-05-05 13:46 | 43.06802 | 92.74933 | 38036 ft | 434 kts | 283° |
| 2026-05-05 13:46 | 43.08692 | 92.67097 | 38031 ft | 434 kts | 283° |
| 2026-05-05 13:47 | 43.10580 | 92.59243 | 38025 ft | 435 kts | 283° |
| 2026-05-05 13:47 | 43.12466 | 92.51372 | 38025 ft | 435 kts | 283° |
| 2026-05-05 13:48 | 43.14347 | 92.43493 | 38030 ft | 435 kts | 283° |
| 2026-05-05 13:48 | 43.16223 | 92.35607 | 38031 ft | 435 kts | 283° |
| 2026-05-05 13:49 | 43.18093 | 92.27718 | 38069 ft | 436 kts | 283° |
| 2026-05-05 13:49 | 43.19961 | 92.19809 | 38058 ft | 437 kts | 282° |
| 2026-05-05 13:50 | 43.21825 | 92.11889 | 38057 ft | 437 kts | 282° |
| 2026-05-05 13:50 | 43.23685 | 92.03959 | 38057 ft | 437 kts | 282° |
| 2026-05-05 13:51 | 43.25540 | 91.96024 | 38076 ft | 437 kts | 282° |
| 2026-05-05 13:51 | 43.27390 | 91.88083 | 38072 ft | 438 kts | 282° |
| 2026-05-05 13:52 | 43.29246 | 91.80075 | 38078 ft | 442 kts | 282° |
| 2026-05-05 13:52 | 43.31106 | 91.72030 | 38077 ft | 442 kts | 282° |
| 2026-05-05 13:53 | 43.32962 | 91.63977 | 38085 ft | 442 kts | 282° |
| 2026-05-05 13:53 | 43.34812 | 91.55924 | 38103 ft | 442 kts | 282° |
| 2026-05-05 13:54 | 43.36657 | 91.47856 | 38108 ft | 444 kts | 282° |
| 2026-05-05 13:54 | 43.38513 | 91.39718 | 38106 ft | 449 kts | 282° |
| 2026-05-05 13:55 | 43.40377 | 91.31501 | 38120 ft | 451 kts | 282° |
| 2026-05-05 13:55 | 43.42236 | 91.23271 | 38121 ft | 450 kts | 282° |
| 2026-05-05 13:56 | 43.44083 | 91.15036 | 38150 ft | 451 kts | 283° |
| 2026-05-05 13:56 | 43.45933 | 91.06774 | 38163 ft | 453 kts | 283° |
| 2026-05-05 13:57 | 43.47783 | 90.98482 | 38164 ft | 453 kts | 283° |
| 2026-05-05 13:57 | 43.49616 | 90.90234 | 38169 ft | 453 kts | 283° |
| 2026-05-05 13:58 | 43.51454 | 90.81928 | 38189 ft | 453 kts | 283° |
| 2026-05-05 13:58 | 43.53287 | 90.73617 | 38206 ft | 453 kts | 284° |
| 2026-05-05 13:59 | 43.56018 | 90.61175 | 38200 ft | 452 kts | 284° |
| 2026-05-05 14:00 | 43.58738 | 90.48725 | 38223 ft | 451 kts | 283° |
| 2026-05-05 14:00 | 43.60537 | 90.40432 | 38250 ft | 452 kts | 283° |
| 2026-05-05 14:01 | 43.62334 | 90.32113 | 38241 ft | 453 kts | 284° |
| 2026-05-05 14:01 | 43.64131 | 90.23765 | 38257 ft | 454 kts | 283° |
| 2026-05-05 14:02 | 43.65931 | 90.15381 | 38255 ft | 456 kts | 283° |
| 2026-05-05 14:02 | 43.67731 | 90.06977 | 38253 ft | 456 kts | 283° |
| 2026-05-05 14:03 | 43.69610 | 89.98596 | 38248 ft | 457 kts | 285° |
| 2026-05-05 14:03 | 43.71545 | 89.90198 | 38249 ft | 460 kts | 285° |
| 2026-05-05 14:04 | 43.73475 | 89.81759 | 38248 ft | 461 kts | 285° |
| 2026-05-05 14:04 | 43.75388 | 89.73306 | 38235 ft | 461 kts | 285° |
| 2026-05-05 14:05 | 43.77290 | 89.64843 | 38237 ft | 461 kts | 284° |
| 2026-05-05 14:05 | 43.79187 | 89.56372 | 38237 ft | 461 kts | 284° |
| 2026-05-05 14:06 | 43.81086 | 89.47903 | 38233 ft | 461 kts | 285° |
| 2026-05-05 14:06 | 43.83045 | 89.39450 | 38236 ft | 461 kts | 285° |
| 2026-05-05 14:07 | 43.85011 | 89.31002 | 38221 ft | 461 kts | 285° |
| 2026-05-05 14:07 | 43.86963 | 89.22548 | 38238 ft | 461 kts | 285° |
| 2026-05-05 14:08 | 43.88896 | 89.14113 | 38231 ft | 458 kts | 285° |
| 2026-05-05 14:08 | 43.90816 | 89.05697 | 38223 ft | 457 kts | 285° |
| 2026-05-05 14:09 | 43.92727 | 88.97284 | 38225 ft | 458 kts | 285° |
| 2026-05-05 14:09 | 43.94634 | 88.88862 | 38228 ft | 458 kts | 285° |
| 2026-05-05 14:10 | 43.96534 | 88.80436 | 38233 ft | 456 kts | 285° |
| 2026-05-05 14:10 | 43.98561 | 88.72157 | 38229 ft | 456 kts | 288° |
| 2026-05-05 14:11 | 44.00717 | 88.63884 | 38228 ft | 455 kts | 288° |
| 2026-05-05 14:11 | 44.02852 | 88.55600 | 38239 ft | 455 kts | 288° |
| 2026-05-05 14:12 | 44.04958 | 88.47295 | 38235 ft | 455 kts | 287° |
| 2026-05-05 14:12 | 44.07045 | 88.38983 | 38221 ft | 456 kts | 287° |
| 2026-05-05 14:13 | 44.09133 | 88.30634 | 38216 ft | 457 kts | 287° |
| 2026-05-05 14:13 | 44.11215 | 88.22282 | 38214 ft | 457 kts | 287° |
| 2026-05-05 14:14 | 44.13290 | 88.13931 | 38191 ft | 457 kts | 287° |
| 2026-05-05 14:14 | 44.15360 | 88.05571 | 38186 ft | 457 kts | 287° |
| 2026-05-05 14:15 | 44.17884 | 87.97436 | 38176 ft | 461 kts | 298° |
| 2026-05-05 14:15 | 44.21520 | 87.90075 | 38172 ft | 461 kts | 304° |
| 2026-05-05 14:16 | 44.25379 | 87.82904 | 38166 ft | 463 kts | 304° |
| 2026-05-05 14:16 | 44.29269 | 87.75752 | 38160 ft | 463 kts | 304° |
| 2026-05-05 14:17 | 44.33144 | 87.68571 | 38158 ft | 463 kts | 304° |
| 2026-05-05 14:17 | 44.37052 | 87.61393 | 38169 ft | 465 kts | 305° |
| 2026-05-05 14:18 | 44.40977 | 87.54280 | 38156 ft | 465 kts | 306° |
| 2026-05-05 14:18 | 44.44924 | 87.47108 | 38156 ft | 465 kts | 306° |
| 2026-05-05 14:19 | 44.48864 | 87.39910 | 38156 ft | 465 kts | 306° |
| 2026-05-05 14:19 | 44.52794 | 87.32702 | 38141 ft | 465 kts | 306° |
| 2026-05-05 14:20 | 44.56734 | 87.25504 | 38168 ft | 465 kts | 307° |
| 2026-05-05 14:20 | 44.60815 | 87.18467 | 38150 ft | 464 kts | 308° |
| 2026-05-05 14:21 | 44.64924 | 87.11477 | 38151 ft | 464 kts | 308° |
| 2026-05-05 14:21 | 44.69007 | 87.04460 | 38152 ft | 464 kts | 308° |
| 2026-05-05 14:22 | 44.73071 | 86.97421 | 38150 ft | 464 kts | 308° |
| 2026-05-05 14:22 | 44.77136 | 86.90378 | 38153 ft | 463 kts | 308° |
| 2026-05-05 14:23 | 44.81191 | 86.83332 | 38149 ft | 463 kts | 308° |
| 2026-05-05 14:23 | 44.85235 | 86.76274 | 38148 ft | 463 kts | 307° |
| 2026-05-05 14:24 | 44.89230 | 86.69152 | 38148 ft | 463 kts | 307° |
| 2026-05-05 14:24 | 44.93210 | 86.62010 | 38143 ft | 463 kts | 307° |
| 2026-05-05 14:25 | 44.97165 | 86.54916 | 38133 ft | 463 kts | 307° |
| 2026-05-05 14:25 | 45.01149 | 86.47763 | 38138 ft | 463 kts | 307° |
| 2026-05-05 14:26 | 45.05129 | 86.40606 | 38155 ft | 463 kts | 307° |
| 2026-05-05 14:26 | 45.09101 | 86.33444 | 38153 ft | 463 kts | 307° |
| 2026-05-05 14:27 | 45.13071 | 86.26267 | 38137 ft | 463 kts | 307° |
| 2026-05-05 14:27 | 45.17033 | 86.19086 | 38138 ft | 463 kts | 307° |
| 2026-05-05 14:28 | 45.20992 | 86.11892 | 38147 ft | 463 kts | 307° |
| 2026-05-05 14:28 | 45.24940 | 86.04700 | 38145 ft | 462 kts | 307° |
| 2026-05-05 14:29 | 45.28881 | 85.97502 | 38147 ft | 462 kts | 307° |
| 2026-05-05 14:29 | 45.32815 | 85.90298 | 38128 ft | 461 kts | 307° |
| 2026-05-05 14:30 | 45.36745 | 85.83085 | 38152 ft | 461 kts | 307° |
| 2026-05-05 14:30 | 45.40671 | 85.75861 | 38145 ft | 461 kts | 307° |
| 2026-05-05 14:31 | 45.44589 | 85.68632 | 38143 ft | 461 kts | 307° |
| 2026-05-05 14:31 | 45.48505 | 85.61387 | 38143 ft | 461 kts | 307° |
| 2026-05-05 14:32 | 45.51759 | 85.55356 | 38142 ft | 463 kts | 307° |
| 2026-05-05 14:32 | 45.55681 | 85.48067 | 38120 ft | 463 kts | 307° |
| 2026-05-05 14:33 | 45.59599 | 85.40766 | 38142 ft | 463 kts | 307° |
| 2026-05-05 14:33 | 45.63516 | 85.33449 | 38124 ft | 463 kts | 307° |
| 2026-05-05 14:34 | 45.67427 | 85.26124 | 38139 ft | 464 kts | 307° |
| 2026-05-05 14:34 | 45.71341 | 85.18785 | 38144 ft | 465 kts | 307° |
| 2026-05-05 14:35 | 45.75275 | 85.11441 | 38152 ft | 465 kts | 307° |
| 2026-05-05 14:35 | 45.79216 | 85.04077 | 38155 ft | 465 kts | 307° |
| 2026-05-05 14:36 | 45.83144 | 84.96711 | 38158 ft | 465 kts | 307° |
| 2026-05-05 14:36 | 45.87068 | 84.89328 | 38162 ft | 465 kts | 307° |
| 2026-05-05 14:37 | 45.90990 | 84.81930 | 38167 ft | 466 kts | 307° |
| 2026-05-05 14:37 | 45.94910 | 84.74517 | 38178 ft | 466 kts | 307° |
| 2026-05-05 14:38 | 45.98829 | 84.67087 | 38179 ft | 466 kts | 307° |
| 2026-05-05 14:38 | 46.02740 | 84.59649 | 38193 ft | 466 kts | 307° |
| 2026-05-05 14:39 | 46.06650 | 84.52195 | 38196 ft | 467 kts | 307° |
| 2026-05-05 14:39 | 46.10535 | 84.44771 | 38194 ft | 467 kts | 307° |
| 2026-05-05 14:40 | 46.14443 | 84.37281 | 38216 ft | 468 kts | 307° |
| 2026-05-05 14:40 | 46.18347 | 84.29778 | 38216 ft | 468 kts | 307° |
| 2026-05-05 14:41 | 46.22248 | 84.22262 | 38232 ft | 468 kts | 307° |
| 2026-05-05 14:41 | 46.26135 | 84.14752 | 38230 ft | 465 kts | 307° |
| 2026-05-05 14:42 | 46.29996 | 84.07253 | 38225 ft | 465 kts | 307° |
| 2026-05-05 14:42 | 46.33865 | 83.99680 | 38225 ft | 465 kts | 307° |
| 2026-05-05 14:43 | 46.37678 | 83.92200 | 38221 ft | 466 kts | 307° |
| 2026-05-05 14:43 | 46.41526 | 83.84637 | 38213 ft | 466 kts | 307° |
| 2026-05-05 14:44 | 46.45368 | 83.77066 | 38211 ft | 466 kts | 307° |
| 2026-05-05 14:44 | 46.49205 | 83.69486 | 38201 ft | 466 kts | 307° |
| 2026-05-05 14:45 | 46.53038 | 83.61892 | 38202 ft | 466 kts | 306° |
| 2026-05-05 14:45 | 46.56862 | 83.54297 | 38214 ft | 466 kts | 306° |
| 2026-05-05 14:46 | 46.60687 | 83.46679 | 38206 ft | 467 kts | 306° |
| 2026-05-05 14:46 | 46.64509 | 83.39048 | 38224 ft | 467 kts | 306° |
| 2026-05-05 14:47 | 46.66416 | 83.35222 | 38416 ft | 466 kts | 306° |
| 2026-05-05 14:47 | 46.68225 | 83.31316 | 38609 ft | 465 kts | 303° |
| 2026-05-05 14:47 | 46.69947 | 83.27322 | 38772 ft | 466 kts | 301° |
| 2026-05-05 14:47 | 46.71633 | 83.23296 | 38854 ft | 466 kts | 301° |
| 2026-05-05 14:48 | 46.75007 | 83.15240 | 39048 ft | 465 kts | 301° |
| 2026-05-05 14:48 | 46.78415 | 83.07229 | 39246 ft | 465 kts | 302° |
| 2026-05-05 14:49 | 46.81844 | 82.99235 | 39431 ft | 464 kts | 302° |
| 2026-05-05 14:49 | 46.85101 | 82.91107 | 39626 ft | 464 kts | 294° |
| 2026-05-05 14:50 | 46.87010 | 82.82084 | 39736 ft | 468 kts | 281° |
| 2026-05-05 14:50 | 46.88081 | 82.72667 | 39834 ft | 470 kts | 278° |
| 2026-05-05 14:51 | 46.88999 | 82.63218 | 39999 ft | 469 kts | 278° |
| 2026-05-05 14:51 | 46.89917 | 82.53775 | 40121 ft | 470 kts | 278° |
| 2026-05-05 14:52 | 46.90853 | 82.44311 | 40115 ft | 470 kts | 278° |
| 2026-05-05 14:52 | 46.91793 | 82.34846 | 40115 ft | 470 kts | 278° |
| 2026-05-05 14:53 | 46.92726 | 82.25382 | 40108 ft | 470 kts | 278° |
| 2026-05-05 14:53 | 46.93644 | 82.15982 | 40106 ft | 470 kts | 278° |
| 2026-05-05 14:54 | 46.94558 | 82.06526 | 40099 ft | 469 kts | 278° |
| 2026-05-05 14:54 | 46.95465 | 81.97068 | 40105 ft | 469 kts | 278° |
| 2026-05-05 14:55 | 46.96363 | 81.87607 | 40097 ft | 469 kts | 278° |
| 2026-05-05 14:55 | 46.97246 | 81.78146 | 40092 ft | 469 kts | 278° |
| 2026-05-05 14:56 | 46.98118 | 81.68680 | 40094 ft | 469 kts | 278° |
| 2026-05-05 14:56 | 46.98986 | 81.59202 | 40098 ft | 469 kts | 278° |
| 2026-05-05 14:57 | 46.99846 | 81.49728 | 40101 ft | 469 kts | 278° |
| 2026-05-05 14:57 | 47.00699 | 81.40246 | 40095 ft | 469 kts | 278° |
| 2026-05-05 14:58 | 47.01544 | 81.30758 | 40097 ft | 470 kts | 278° |
| 2026-05-05 14:58 | 47.02381 | 81.21269 | 40091 ft | 470 kts | 277° |
| 2026-05-05 14:59 | 47.03210 | 81.11779 | 40090 ft | 470 kts | 277° |
| 2026-05-05 14:59 | 47.04031 | 81.02284 | 40096 ft | 469 kts | 277° |
| 2026-05-05 15:00 | 47.04709 | 80.94393 | 40093 ft | 469 kts | 277° |
| 2026-05-05 15:00 | 47.05650 | 80.83302 | 40095 ft | 469 kts | 277° |
| 2026-05-05 15:01 | 47.06448 | 80.73802 | 40089 ft | 469 kts | 277° |
| 2026-05-05 15:01 | 47.07238 | 80.64302 | 40089 ft | 469 kts | 277° |
| 2026-05-05 15:02 | 47.08020 | 80.54795 | 40091 ft | 469 kts | 277° |
| 2026-05-05 15:02 | 47.08795 | 80.45288 | 40090 ft | 470 kts | 277° |
| 2026-05-05 15:03 | 47.09563 | 80.35759 | 40083 ft | 470 kts | 277° |
| 2026-05-05 15:03 | 47.10323 | 80.26221 | 40083 ft | 470 kts | 277° |
| 2026-05-05 15:04 | 47.11075 | 80.16690 | 40081 ft | 470 kts | 277° |
| 2026-05-05 15:04 | 47.11820 | 80.07145 | 40068 ft | 470 kts | 277° |
| 2026-05-05 15:05 | 47.12922 | 79.92826 | 40084 ft | 471 kts | 276° |
| 2026-05-05 15:06 | 47.13650 | 79.83265 | 40081 ft | 471 kts | 277° |
| 2026-05-05 15:06 | 47.14388 | 79.73716 | 40082 ft | 470 kts | 277° |
| 2026-05-05 15:07 | 47.15124 | 79.64167 | 40074 ft | 470 kts | 276° |
| 2026-05-05 15:07 | 47.15850 | 79.54618 | 40086 ft | 470 kts | 276° |
| 2026-05-05 15:08 | 47.16561 | 79.45132 | 40084 ft | 470 kts | 276° |
| 2026-05-05 15:08 | 47.17268 | 79.35584 | 40088 ft | 470 kts | 276° |
| 2026-05-05 15:09 | 47.17967 | 79.26032 | 40089 ft | 470 kts | 276° |
| 2026-05-05 15:09 | 47.18659 | 79.16479 | 40086 ft | 470 kts | 276° |
| 2026-05-05 15:10 | 47.19335 | 79.06928 | 40087 ft | 470 kts | 276° |
| 2026-05-05 15:10 | 47.19986 | 78.97369 | 40090 ft | 470 kts | 276° |
| 2026-05-05 15:11 | 47.20629 | 78.87809 | 40090 ft | 470 kts | 276° |
| 2026-05-05 15:11 | 47.21266 | 78.78253 | 40090 ft | 470 kts | 276° |
| 2026-05-05 15:12 | 47.21898 | 78.68681 | 40099 ft | 470 kts | 275° |
| 2026-05-05 15:12 | 47.22522 | 78.59121 | 40097 ft | 470 kts | 275° |
| 2026-05-05 15:13 | 47.23137 | 78.49553 | 40101 ft | 469 kts | 275° |
| 2026-05-05 15:13 | 47.23739 | 78.40066 | 40105 ft | 469 kts | 275° |
| 2026-05-05 15:14 | 47.24342 | 78.30448 | 40105 ft | 469 kts | 275° |
| 2026-05-05 15:14 | 47.24928 | 78.20958 | 40103 ft | 469 kts | 275° |
| 2026-05-05 15:15 | 47.25511 | 78.11400 | 40107 ft | 469 kts | 275° |
| 2026-05-05 15:15 | 47.26085 | 78.01838 | 40105 ft | 469 kts | 275° |
| 2026-05-05 15:16 | 47.26652 | 77.92269 | 40105 ft | 469 kts | 275° |
| 2026-05-05 15:16 | 47.27211 | 77.82710 | 40101 ft | 469 kts | 275° |
| 2026-05-05 15:17 | 47.27762 | 77.73139 | 40108 ft | 469 kts | 275° |
| 2026-05-05 15:17 | 47.28305 | 77.63574 | 40102 ft | 469 kts | 274° |
| 2026-05-05 15:18 | 47.28840 | 77.53999 | 40105 ft | 469 kts | 274° |
| 2026-05-05 15:18 | 47.29367 | 77.44429 | 40105 ft | 469 kts | 274° |
| 2026-05-05 15:19 | 47.29885 | 77.34854 | 40103 ft | 469 kts | 274° |
| 2026-05-05 15:19 | 47.30310 | 77.26901 | 40106 ft | 469 kts | 274° |
| 2026-05-05 15:20 | 47.30814 | 77.17325 | 40107 ft | 468 kts | 274° |
| 2026-05-05 15:20 | 47.31310 | 77.07761 | 40102 ft | 468 kts | 274° |
| 2026-05-05 15:21 | 47.31980 | 76.98219 | 40103 ft | 468 kts | 278° |
| 2026-05-05 15:21 | 47.33025 | 76.88757 | 40103 ft | 467 kts | 279° |
| 2026-05-05 15:22 | 47.34076 | 76.79305 | 40101 ft | 467 kts | 278° |
| 2026-05-05 15:22 | 47.35057 | 76.69834 | 40103 ft | 467 kts | 278° |
| 2026-05-05 15:23 | 47.35998 | 76.60352 | 40099 ft | 467 kts | 278° |
| 2026-05-05 15:23 | 47.36927 | 76.50862 | 40104 ft | 467 kts | 277° |
| 2026-05-05 15:24 | 47.37850 | 76.41371 | 40105 ft | 467 kts | 277° |
| 2026-05-05 15:24 | 47.38767 | 76.31876 | 40107 ft | 467 kts | 277° |
| 2026-05-05 15:25 | 47.39676 | 76.22384 | 40107 ft | 467 kts | 277° |
| 2026-05-05 15:25 | 47.40576 | 76.12896 | 40095 ft | 466 kts | 277° |
| 2026-05-05 15:26 | 47.41468 | 76.03419 | 40100 ft | 466 kts | 277° |
| 2026-05-05 15:26 | 47.42351 | 75.93937 | 40102 ft | 466 kts | 277° |
| 2026-05-05 15:27 | 47.43221 | 75.84513 | 40106 ft | 466 kts | 277° |
| 2026-05-05 15:27 | 47.44089 | 75.75028 | 40108 ft | 466 kts | 277° |
| 2026-05-05 15:28 | 47.44949 | 75.65541 | 40103 ft | 466 kts | 276° |
| 2026-05-05 15:28 | 47.45801 | 75.56048 | 40105 ft | 466 kts | 276° |
| 2026-05-05 15:29 | 47.46646 | 75.46543 | 40105 ft | 466 kts | 276° |
| 2026-05-05 15:29 | 47.47483 | 75.37040 | 40108 ft | 466 kts | 276° |
| 2026-05-05 15:30 | 47.48313 | 75.27525 | 40113 ft | 466 kts | 276° |
| 2026-05-05 15:30 | 47.49134 | 75.18023 | 40113 ft | 466 kts | 276° |
| 2026-05-05 15:31 | 47.49946 | 75.08527 | 40117 ft | 465 kts | 276° |
| 2026-05-05 15:31 | 47.50750 | 74.99026 | 40116 ft | 466 kts | 276° |
| 2026-05-05 15:32 | 47.51546 | 74.89525 | 40118 ft | 466 kts | 276° |
| 2026-05-05 15:32 | 47.52334 | 74.80020 | 40118 ft | 466 kts | 276° |
| 2026-05-05 15:33 | 47.53115 | 74.70511 | 40122 ft | 465 kts | 275° |
| 2026-05-05 15:33 | 47.53888 | 74.60999 | 40121 ft | 465 kts | 275° |
| 2026-05-05 15:34 | 47.54652 | 74.51491 | 40118 ft | 465 kts | 275° |
| 2026-05-05 15:34 | 47.55409 | 74.41979 | 40113 ft | 465 kts | 275° |
| 2026-05-05 15:35 | 47.56158 | 74.32460 | 40109 ft | 465 kts | 275° |
| 2026-05-05 15:35 | 47.56899 | 74.22948 | 40112 ft | 465 kts | 275° |
| 2026-05-05 15:36 | 47.57627 | 74.13480 | 40110 ft | 465 kts | 275° |
| 2026-05-05 15:36 | 47.58352 | 74.03964 | 40111 ft | 465 kts | 275° |
| 2026-05-05 15:37 | 47.59069 | 73.94437 | 40111 ft | 465 kts | 275° |
| 2026-05-05 15:37 | 47.59779 | 73.84908 | 40113 ft | 465 kts | 275° |
| 2026-05-05 15:38 | 47.60481 | 73.75372 | 40113 ft | 466 kts | 275° |
| 2026-05-05 15:38 | 47.61175 | 73.65832 | 40113 ft | 466 kts | 275° |
| 2026-05-05 15:39 | 47.61861 | 73.56293 | 40112 ft | 466 kts | 274° |
| 2026-05-05 15:39 | 47.62539 | 73.46750 | 40119 ft | 466 kts | 274° |
| 2026-05-05 15:40 | 47.63210 | 73.37198 | 40115 ft | 466 kts | 274° |
| 2026-05-05 15:40 | 47.63872 | 73.27646 | 40128 ft | 466 kts | 274° |
| 2026-05-05 15:41 | 47.64527 | 73.18092 | 40117 ft | 465 kts | 274° |
| 2026-05-05 15:41 | 47.65173 | 73.08549 | 40118 ft | 465 kts | 274° |
| 2026-05-05 15:42 | 47.65810 | 72.99009 | 40116 ft | 465 kts | 274° |
| 2026-05-05 15:42 | 47.66441 | 72.89462 | 40115 ft | 465 kts | 274° |
| 2026-05-05 15:43 | 47.67063 | 72.79908 | 40121 ft | 465 kts | 274° |
| 2026-05-05 15:43 | 47.67672 | 72.70421 | 40118 ft | 465 kts | 274° |
| 2026-05-05 15:44 | 47.68283 | 72.60801 | 40115 ft | 465 kts | 274° |
| 2026-05-05 15:44 | 47.68877 | 72.51307 | 40116 ft | 465 kts | 274° |
| 2026-05-05 15:45 | 47.69468 | 72.41748 | 40113 ft | 465 kts | 273° |
| 2026-05-05 15:45 | 47.70050 | 72.32189 | 40113 ft | 465 kts | 273° |
| 2026-05-05 15:46 | 47.70625 | 72.22624 | 40112 ft | 465 kts | 273° |
| 2026-05-05 15:46 | 47.71191 | 72.13069 | 40107 ft | 464 kts | 273° |
| 2026-05-05 15:47 | 47.71749 | 72.03519 | 40102 ft | 464 kts | 273° |
| 2026-05-05 15:47 | 47.72298 | 71.93973 | 40105 ft | 464 kts | 273° |
| 2026-05-05 15:48 | 47.72839 | 71.84424 | 40097 ft | 464 kts | 272° |
| 2026-05-05 15:48 | 47.73324 | 71.74871 | 40094 ft | 464 kts | 271° |
| 2026-05-05 15:49 | 47.73702 | 71.65311 | 40095 ft | 464 kts | 271° |
| 2026-05-05 15:49 | 47.74070 | 71.55741 | 40094 ft | 464 kts | 271° |
| 2026-05-05 15:50 | 47.74446 | 71.46189 | 40089 ft | 463 kts | 271° |
| 2026-05-05 15:50 | 47.74822 | 71.36634 | 40085 ft | 463 kts | 271° |
| 2026-05-05 15:51 | 47.75191 | 71.27080 | 40086 ft | 463 kts | 271° |
| 2026-05-05 15:51 | 47.75552 | 71.17529 | 40083 ft | 463 kts | 271° |
| 2026-05-05 15:52 | 47.75904 | 71.07978 | 40077 ft | 463 kts | 271° |
| 2026-05-05 15:52 | 47.76248 | 70.98426 | 40078 ft | 463 kts | 271° |
| 2026-05-05 15:53 | 47.76584 | 70.88880 | 40074 ft | 463 kts | 271° |
| 2026-05-05 15:53 | 47.76912 | 70.79330 | 40073 ft | 463 kts | 271° |
| 2026-05-05 15:54 | 47.77230 | 70.69843 | 40071 ft | 463 kts | 271° |
| 2026-05-05 15:54 | 47.77543 | 70.60302 | 40069 ft | 462 kts | 270° |
| 2026-05-05 15:55 | 47.77845 | 70.50763 | 40060 ft | 462 kts | 270° |
| 2026-05-05 15:55 | 47.78138 | 70.41230 | 40055 ft | 462 kts | 270° |
| 2026-05-05 15:56 | 47.78423 | 70.31696 | 40059 ft | 462 kts | 270° |
| 2026-05-05 15:56 | 47.78701 | 70.22160 | 40054 ft | 461 kts | 270° |
| 2026-05-05 15:57 | 47.78972 | 70.12636 | 40055 ft | 460 kts | 270° |
| 2026-05-05 15:57 | 47.79233 | 70.03130 | 40047 ft | 460 kts | 270° |
| 2026-05-05 15:58 | 47.79487 | 69.93625 | 40046 ft | 460 kts | 270° |
| 2026-05-05 15:58 | 47.79732 | 69.84122 | 40043 ft | 460 kts | 270° |
| 2026-05-05 15:59 | 47.79970 | 69.74614 | 40045 ft | 460 kts | 270° |
| 2026-05-05 15:59 | 47.80200 | 69.65105 | 40045 ft | 460 kts | 270° |
| 2026-05-05 16:00 | 47.80423 | 69.55594 | 40044 ft | 460 kts | 270° |
| 2026-05-05 16:00 | 47.80637 | 69.46081 | 40044 ft | 460 kts | 269° |
| 2026-05-05 16:01 | 47.80844 | 69.36568 | 40046 ft | 460 kts | 269° |
| 2026-05-05 16:01 | 47.81042 | 69.27060 | 40039 ft | 461 kts | 269° |
| 2026-05-05 16:02 | 47.81233 | 69.17522 | 40043 ft | 461 kts | 269° |
| 2026-05-05 16:02 | 47.81417 | 69.07982 | 40051 ft | 461 kts | 269° |
| 2026-05-05 16:03 | 47.81591 | 68.98516 | 40045 ft | 461 kts | 269° |
| 2026-05-05 16:03 | 47.81759 | 68.88982 | 40035 ft | 461 kts | 269° |
| 2026-05-05 16:04 | 47.81627 | 68.79472 | 40041 ft | 459 kts | 262° |
| 2026-05-05 16:04 | 47.80876 | 68.70033 | 40039 ft | 460 kts | 261° |
| 2026-05-05 16:05 | 47.80011 | 68.60593 | 40039 ft | 461 kts | 260° |
| 2026-05-05 16:05 | 47.79127 | 68.51156 | 40038 ft | 461 kts | 260° |
| 2026-05-05 16:06 | 47.78247 | 68.41724 | 40033 ft | 461 kts | 260° |
| 2026-05-05 16:06 | 47.77366 | 68.32295 | 40030 ft | 460 kts | 260° |
| 2026-05-05 16:07 | 47.76480 | 68.22876 | 40036 ft | 460 kts | 260° |
| 2026-05-05 16:07 | 47.75737 | 68.15053 | 40032 ft | 460 kts | 260° |
| 2026-05-05 16:08 | 47.74836 | 68.05636 | 40023 ft | 460 kts | 260° |
| 2026-05-05 16:08 | 47.73927 | 67.96229 | 40024 ft | 460 kts | 260° |
| 2026-05-05 16:09 | 47.73011 | 67.86825 | 40022 ft | 460 kts | 260° |
| 2026-05-05 16:09 | 47.72087 | 67.77424 | 40016 ft | 460 kts | 259° |
| 2026-05-05 16:10 | 47.70958 | 67.68084 | 40019 ft | 459 kts | 256° |
| 2026-05-05 16:10 | 47.69496 | 67.58843 | 40018 ft | 460 kts | 255° |
| 2026-05-05 16:11 | 47.68027 | 67.49600 | 40032 ft | 460 kts | 255° |
| 2026-05-05 16:12 | 47.65200 | 67.31063 | 40028 ft | 461 kts | 256° |
| 2026-05-05 16:13 | 47.61668 | 67.07928 | 40029 ft | 460 kts | 255° |
| 2026-05-05 16:13 | 47.60248 | 66.98741 | 40028 ft | 460 kts | 255° |
| 2026-05-05 16:14 | 47.57367 | 66.80260 | 40022 ft | 460 kts | 255° |
| 2026-05-05 16:15 | 47.54426 | 66.61842 | 40032 ft | 459 kts | 255° |
| 2026-05-05 16:16 | 47.51375 | 66.43510 | 40026 ft | 459 kts | 254° |
| 2026-05-05 16:17 | 47.49080 | 66.29765 | 40014 ft | 459 kts | 254° |
| 2026-05-05 16:18 | 47.46772 | 66.16039 | 40008 ft | 459 kts | 254° |
| 2026-05-05 16:19 | 47.44448 | 66.02329 | 40015 ft | 459 kts | 254° |
| 2026-05-05 16:19 | 47.42108 | 65.88633 | 40009 ft | 459 kts | 254° |
| 2026-05-05 16:20 | 47.39053 | 65.70409 | 40002 ft | 459 kts | 255° |
| 2026-05-05 16:22 | 47.35271 | 65.47555 | 39986 ft | 459 kts | 254° |
| 2026-05-05 16:23 | 47.32192 | 65.29298 | 39986 ft | 459 kts | 254° |
| 2026-05-05 16:23 | 47.29865 | 65.15620 | 39979 ft | 459 kts | 254° |
| 2026-05-05 16:24 | 47.28305 | 65.06505 | 39978 ft | 459 kts | 254° |
| 2026-05-05 16:25 | 47.25949 | 64.92840 | 39977 ft | 459 kts | 254° |
| 2026-05-05 16:25 | 47.23573 | 64.79190 | 39977 ft | 459 kts | 254° |
| 2026-05-05 16:26 | 47.20389 | 64.61050 | 39974 ft | 458 kts | 254° |
| 2026-05-05 16:27 | 47.18788 | 64.51998 | 39969 ft | 458 kts | 254° |
| 2026-05-05 16:27 | 47.17196 | 64.43004 | 39964 ft | 458 kts | 254° |
| 2026-05-05 16:28 | 47.15590 | 64.33966 | 39971 ft | 457 kts | 254° |
| 2026-05-05 16:28 | 47.13979 | 64.24947 | 39971 ft | 456 kts | 254° |
| 2026-05-05 16:29 | 47.12361 | 64.15934 | 39971 ft | 456 kts | 254° |
| 2026-05-05 16:29 | 47.10735 | 64.06929 | 39964 ft | 456 kts | 254° |
| 2026-05-05 16:30 | 47.09103 | 63.97932 | 39970 ft | 456 kts | 254° |
| 2026-05-05 16:30 | 47.07464 | 63.88940 | 39966 ft | 456 kts | 253° |
| 2026-05-05 16:31 | 47.05818 | 63.79956 | 39961 ft | 456 kts | 253° |
| 2026-05-05 16:31 | 47.04165 | 63.70973 | 39963 ft | 456 kts | 253° |
| 2026-05-05 16:32 | 47.02505 | 63.61999 | 39960 ft | 456 kts | 253° |
| 2026-05-05 16:32 | 47.00840 | 63.53046 | 39961 ft | 455 kts | 253° |
| 2026-05-05 16:33 | 46.99170 | 63.44099 | 39960 ft | 455 kts | 253° |
| 2026-05-05 16:33 | 46.97492 | 63.35160 | 39961 ft | 455 kts | 253° |
| 2026-05-05 16:34 | 46.95808 | 63.26228 | 39956 ft | 455 kts | 253° |
| 2026-05-05 16:34 | 46.94129 | 63.17366 | 39957 ft | 455 kts | 253° |
| 2026-05-05 16:35 | 46.92432 | 63.08450 | 39955 ft | 455 kts | 253° |
| 2026-05-05 16:35 | 46.90728 | 62.99539 | 39952 ft | 455 kts | 253° |
| 2026-05-05 16:36 | 46.89018 | 62.90639 | 39952 ft | 455 kts | 253° |
| 2026-05-05 16:36 | 46.87300 | 62.81741 | 39951 ft | 455 kts | 253° |
| 2026-05-05 16:37 | 46.85576 | 62.72847 | 39950 ft | 455 kts | 253° |
| 2026-05-05 16:37 | 46.83843 | 62.63954 | 39948 ft | 455 kts | 253° |
| 2026-05-05 16:38 | 46.82105 | 62.55074 | 39946 ft | 455 kts | 253° |
| 2026-05-05 16:38 | 46.80361 | 62.46199 | 39947 ft | 455 kts | 252° |
| 2026-05-05 16:39 | 46.78612 | 62.37341 | 39941 ft | 454 kts | 252° |
| 2026-05-05 16:39 | 46.76856 | 62.28488 | 39945 ft | 454 kts | 252° |
| 2026-05-05 16:40 | 46.75093 | 62.19640 | 39943 ft | 454 kts | 252° |
| 2026-05-05 16:40 | 46.73325 | 62.10803 | 39931 ft | 454 kts | 252° |
| 2026-05-05 16:41 | 46.71548 | 62.01966 | 39936 ft | 454 kts | 252° |
| 2026-05-05 16:41 | 46.69765 | 61.93133 | 39940 ft | 454 kts | 252° |
| 2026-05-05 16:42 | 46.67974 | 61.84304 | 39933 ft | 454 kts | 252° |
| 2026-05-05 16:42 | 46.66178 | 61.75488 | 39935 ft | 454 kts | 252° |
| 2026-05-05 16:43 | 46.64370 | 61.66654 | 39936 ft | 457 kts | 252° |
| 2026-05-05 16:43 | 46.62559 | 61.57843 | 39936 ft | 458 kts | 251° |
| 2026-05-05 16:44 | 46.60728 | 61.48975 | 39938 ft | 458 kts | 251° |
| 2026-05-05 16:44 | 46.58890 | 61.40111 | 39935 ft | 458 kts | 251° |
| 2026-05-05 16:45 | 46.57044 | 61.31253 | 39935 ft | 458 kts | 251° |
| 2026-05-05 16:45 | 46.55193 | 61.22405 | 39936 ft | 458 kts | 251° |
| 2026-05-05 16:46 | 46.53337 | 61.13569 | 39937 ft | 457 kts | 251° |
| 2026-05-05 16:46 | 46.51473 | 61.04738 | 39932 ft | 457 kts | 251° |
| 2026-05-05 16:47 | 46.49603 | 60.95914 | 39935 ft | 457 kts | 251° |
| 2026-05-05 16:47 | 46.47730 | 60.87116 | 39929 ft | 456 kts | 251° |
| 2026-05-05 16:48 | 46.45852 | 60.78330 | 39930 ft | 456 kts | 251° |
| 2026-05-05 16:48 | 46.43967 | 60.69549 | 39926 ft | 456 kts | 251° |
| 2026-05-05 16:49 | 46.42075 | 60.60775 | 39923 ft | 456 kts | 251° |
| 2026-05-05 16:49 | 46.40179 | 60.52020 | 39921 ft | 455 kts | 251° |
| 2026-05-05 16:50 | 46.38278 | 60.43274 | 39921 ft | 455 kts | 251° |
| 2026-05-05 16:50 | 46.36370 | 60.34537 | 39921 ft | 455 kts | 251° |
| 2026-05-05 16:51 | 46.34457 | 60.25809 | 39915 ft | 455 kts | 251° |
| 2026-05-05 16:51 | 46.32536 | 60.17085 | 39912 ft | 455 kts | 250° |
| 2026-05-05 16:52 | 46.30609 | 60.08370 | 39915 ft | 455 kts | 250° |
| 2026-05-05 16:52 | 46.28676 | 59.99660 | 39916 ft | 455 kts | 250° |
| 2026-05-05 16:53 | 46.26736 | 59.90958 | 39912 ft | 455 kts | 250° |
| 2026-05-05 16:53 | 46.24792 | 59.82278 | 39906 ft | 452 kts | 250° |
| 2026-05-05 16:54 | 46.22853 | 59.73649 | 39901 ft | 451 kts | 250° |
| 2026-05-05 16:54 | 46.20907 | 59.65047 | 39902 ft | 451 kts | 250° |
| 2026-05-05 16:55 | 46.18945 | 59.56452 | 39900 ft | 451 kts | 250° |
| 2026-05-05 16:55 | 46.16977 | 59.47867 | 39899 ft | 451 kts | 250° |
| 2026-05-05 16:56 | 46.15019 | 59.39353 | 39896 ft | 450 kts | 250° |
| 2026-05-05 16:56 | 46.13041 | 59.30782 | 39903 ft | 451 kts | 250° |
| 2026-05-05 16:57 | 46.11051 | 59.22196 | 39890 ft | 452 kts | 250° |
| 2026-05-05 16:57 | 46.09375 | 59.14988 | 39888 ft | 453 kts | 250° |
| 2026-05-05 16:58 | 46.07368 | 59.06384 | 39891 ft | 453 kts | 250° |
| 2026-05-05 16:58 | 46.05353 | 58.97785 | 39886 ft | 453 kts | 250° |
| 2026-05-05 16:59 | 46.03343 | 58.89241 | 39883 ft | 453 kts | 249° |
| 2026-05-05 16:59 | 46.01302 | 58.80595 | 39885 ft | 453 kts | 249° |
| 2026-05-05 17:00 | 45.99288 | 58.72101 | 39887 ft | 450 kts | 249° |
| 2026-05-05 17:00 | 45.97267 | 58.63609 | 39888 ft | 449 kts | 249° |
| 2026-05-05 17:01 | 45.95241 | 58.55127 | 39876 ft | 449 kts | 249° |
| 2026-05-05 17:01 | 45.93209 | 58.46652 | 39876 ft | 449 kts | 249° |
| 2026-05-05 17:02 | 45.91174 | 58.38201 | 39870 ft | 446 kts | 249° |
| 2026-05-05 17:02 | 45.89143 | 58.29796 | 39867 ft | 445 kts | 249° |
| 2026-05-05 17:03 | 45.87110 | 58.21411 | 39867 ft | 445 kts | 249° |
| 2026-05-05 17:03 | 45.85071 | 58.13038 | 39864 ft | 445 kts | 249° |
| 2026-05-05 17:04 | 45.83027 | 58.04670 | 39863 ft | 444 kts | 248° |
| 2026-05-05 17:04 | 45.80983 | 57.96338 | 39864 ft | 443 kts | 248° |
| 2026-05-05 17:05 | 45.78935 | 57.88019 | 39858 ft | 442 kts | 248° |
| 2026-05-05 17:05 | 45.76883 | 57.79715 | 39852 ft | 442 kts | 248° |
| 2026-05-05 17:06 | 45.74824 | 57.71411 | 39867 ft | 442 kts | 248° |
| 2026-05-05 17:06 | 45.72760 | 57.63116 | 39851 ft | 442 kts | 248° |
| 2026-05-05 17:07 | 45.70688 | 57.54824 | 39867 ft | 442 kts | 248° |
| 2026-05-05 17:07 | 45.68611 | 57.46543 | 39853 ft | 442 kts | 248° |
| 2026-05-05 17:08 | 45.66530 | 57.38271 | 39849 ft | 442 kts | 248° |
| 2026-05-05 17:08 | 45.64452 | 57.30044 | 39860 ft | 444 kts | 248° |
| 2026-05-05 17:09 | 45.62350 | 57.21752 | 39849 ft | 444 kts | 248° |
| 2026-05-05 17:09 | 45.60241 | 57.13462 | 39851 ft | 444 kts | 248° |
| 2026-05-05 17:10 | 45.58127 | 57.05180 | 39861 ft | 444 kts | 247° |
| 2026-05-05 17:10 | 45.56008 | 56.96910 | 39852 ft | 443 kts | 247° |
| 2026-05-05 17:11 | 45.53890 | 56.88672 | 39853 ft | 442 kts | 247° |
| 2026-05-05 17:11 | 45.51766 | 56.80440 | 39852 ft | 442 kts | 247° |
| 2026-05-05 17:12 | 45.49638 | 56.72222 | 39849 ft | 442 kts | 247° |
| 2026-05-05 17:12 | 45.47502 | 56.64006 | 39850 ft | 442 kts | 247° |
| 2026-05-05 17:13 | 45.45361 | 56.55796 | 39851 ft | 442 kts | 247° |
| 2026-05-05 17:13 | 45.43214 | 56.47592 | 39849 ft | 442 kts | 247° |
| 2026-05-05 17:14 | 45.41062 | 56.39395 | 39847 ft | 442 kts | 247° |
| 2026-05-05 17:14 | 45.38905 | 56.31208 | 39841 ft | 442 kts | 246° |
| 2026-05-05 17:15 | 45.36755 | 56.23077 | 39844 ft | 442 kts | 246° |
| 2026-05-05 17:15 | 45.34583 | 56.14895 | 39845 ft | 442 kts | 246° |
| 2026-05-05 17:16 | 45.32407 | 56.06724 | 39843 ft | 442 kts | 246° |
| 2026-05-05 17:16 | 45.30225 | 55.98557 | 39845 ft | 442 kts | 246° |
| 2026-05-05 17:17 | 45.28033 | 55.90382 | 39846 ft | 443 kts | 246° |
| 2026-05-05 17:17 | 45.25831 | 55.82194 | 39849 ft | 444 kts | 246° |
| 2026-05-05 17:18 | 45.23619 | 55.74001 | 39844 ft | 445 kts | 246° |
| 2026-05-05 17:18 | 45.21398 | 55.65804 | 39844 ft | 445 kts | 246° |
| 2026-05-05 17:19 | 45.19176 | 55.57626 | 39846 ft | 444 kts | 246° |
| 2026-05-05 17:19 | 45.16949 | 55.49462 | 39849 ft | 444 kts | 246° |
| 2026-05-05 17:20 | 45.14716 | 55.41304 | 39848 ft | 444 kts | 246° |
| 2026-05-05 17:20 | 45.12479 | 55.33156 | 39851 ft | 444 kts | 246° |
| 2026-05-05 17:21 | 45.10228 | 55.25017 | 39851 ft | 444 kts | 244° |
| 2026-05-05 17:22 | 45.05212 | 55.14219 | 39850 ft | 439 kts | 224° |
| 2026-05-05 17:22 | 45.00777 | 55.08234 | 39857 ft | 442 kts | 222° |
| 2026-05-05 17:23 | 44.96217 | 55.02410 | 39864 ft | 441 kts | 221° |
| 2026-05-05 17:23 | 44.91678 | 54.96619 | 39862 ft | 439 kts | 221° |
| 2026-05-05 17:24 | 44.87198 | 54.90861 | 39867 ft | 438 kts | 222° |
| 2026-05-05 17:24 | 44.82694 | 54.85062 | 39867 ft | 438 kts | 222° |
| 2026-05-05 17:25 | 44.78193 | 54.79276 | 39865 ft | 438 kts | 221° |
| 2026-05-05 17:25 | 44.73689 | 54.73500 | 39875 ft | 438 kts | 221° |
| 2026-05-05 17:26 | 44.69185 | 54.67740 | 39873 ft | 438 kts | 221° |
| 2026-05-05 17:26 | 44.65033 | 54.61498 | 39884 ft | 439 kts | 231° |
| 2026-05-05 17:27 | 44.61456 | 54.54582 | 39881 ft | 437 kts | 232° |
| 2026-05-05 17:27 | 44.57988 | 54.47579 | 39886 ft | 436 kts | 233° |
| 2026-05-05 17:28 | 44.54531 | 54.40590 | 39882 ft | 436 kts | 233° |
| 2026-05-05 17:28 | 44.51056 | 54.33620 | 39889 ft | 436 kts | 232° |
| 2026-05-05 17:29 | 44.47568 | 54.26663 | 39885 ft | 436 kts | 232° |
| 2026-05-05 17:29 | 44.44080 | 54.19731 | 39896 ft | 435 kts | 232° |
| 2026-05-05 17:30 | 44.40599 | 54.12825 | 39897 ft | 434 kts | 232° |
| 2026-05-05 17:30 | 44.37113 | 54.05927 | 39899 ft | 434 kts | 232° |
| 2026-05-05 17:31 | 44.33622 | 53.99032 | 39896 ft | 435 kts | 232° |
| 2026-05-05 17:31 | 44.30150 | 53.92191 | 39896 ft | 435 kts | 232° |
| 2026-05-05 17:32 | 44.26651 | 53.85315 | 39897 ft | 435 kts | 232° |
| 2026-05-05 17:32 | 44.23146 | 53.78442 | 39895 ft | 435 kts | 232° |
| 2026-05-05 17:33 | 44.19639 | 53.71583 | 39900 ft | 435 kts | 232° |
| 2026-05-05 17:33 | 44.16127 | 53.64728 | 39894 ft | 435 kts | 232° |
| 2026-05-05 17:34 | 44.12611 | 53.57884 | 39899 ft | 434 kts | 232° |
| 2026-05-05 17:34 | 44.09089 | 53.51043 | 39900 ft | 435 kts | 232° |
| 2026-05-05 17:35 | 44.05560 | 53.44203 | 39901 ft | 436 kts | 232° |
| 2026-05-05 17:35 | 44.02021 | 53.37362 | 39900 ft | 436 kts | 232° |
| 2026-05-05 17:36 | 43.98479 | 53.30531 | 39900 ft | 436 kts | 232° |
| 2026-05-05 17:36 | 43.94932 | 53.23706 | 39901 ft | 436 kts | 232° |
| 2026-05-05 17:37 | 43.91379 | 53.16885 | 39902 ft | 436 kts | 231° |
| 2026-05-05 17:37 | 43.87822 | 53.10073 | 39906 ft | 436 kts | 231° |
| 2026-05-05 17:38 | 43.84261 | 53.03270 | 39903 ft | 436 kts | 231° |
| 2026-05-05 17:38 | 43.80721 | 52.96527 | 39909 ft | 435 kts | 231° |
| 2026-05-05 17:39 | 43.77164 | 52.89766 | 39912 ft | 434 kts | 231° |
| 2026-05-05 17:39 | 43.73604 | 52.83015 | 39911 ft | 434 kts | 231° |
| 2026-05-05 17:40 | 43.70039 | 52.76270 | 39914 ft | 434 kts | 231° |
| 2026-05-05 17:40 | 43.66474 | 52.69541 | 39904 ft | 434 kts | 231° |
| 2026-05-05 17:41 | 43.62911 | 52.62838 | 39919 ft | 433 kts | 231° |
| 2026-05-05 17:41 | 43.59341 | 52.56159 | 39919 ft | 432 kts | 231° |
| 2026-05-05 17:42 | 43.55766 | 52.49487 | 39928 ft | 432 kts | 231° |
| 2026-05-05 17:42 | 43.52191 | 52.42827 | 39922 ft | 432 kts | 231° |
| 2026-05-05 17:43 | 43.48615 | 52.36178 | 39927 ft | 432 kts | 231° |
| 2026-05-05 17:43 | 43.45034 | 52.29533 | 39930 ft | 432 kts | 231° |
| 2026-05-05 17:44 | 43.41449 | 52.22899 | 39936 ft | 432 kts | 230° |
| 2026-05-05 17:44 | 43.37867 | 52.16283 | 39935 ft | 431 kts | 230° |
| 2026-05-05 17:45 | 43.34281 | 52.09675 | 39938 ft | 431 kts | 230° |
| 2026-05-05 17:45 | 43.31299 | 52.04192 | 39939 ft | 431 kts | 230° |
| 2026-05-05 17:46 | 43.27705 | 51.97597 | 39942 ft | 431 kts | 230° |